<?xml version="1.0" encoding="UTF-8" standalone="no" ?>
<gpx xmlns="http://www.topografix.com/GPX/1/1" xmlns:xsi="http://www.w3.org/2001/XMLSchema-instance" xsi:schemaLocation="http://www.topografix.com/GPX/1/1 http://www.topografix.com/GPX/1/1/gpx.xsd" version="1.1" creator="VisuGPX - https://www.visugpx.com">
  <metadata>
    <name>Vercors tête des chaudieres 25-01-14</name>
    <desc><![CDATA[Vercors: tête des chaudières 25-01-14

Belle ballade avec juste un groupe du GUM, 2 couples et nous 3.]]></desc>
  </metadata>
  <trk>
    <name><![CDATA[VERCORS TETE DES CHAUDIERES]]></name>
    <trkseg>
      <trkpt lat="45.02049" lon="5.5266">
        <ele>1283.02</ele>
        <time>2014-01-25T09:01:26Z</time>
      </trkpt>
      <trkpt lat="45.02078" lon="5.52737">
        <ele>1260.43</ele>
        <time>2014-01-25T09:01:52Z</time>
      </trkpt>
      <trkpt lat="45.02079" lon="5.5274">
        <ele>1252.25</ele>
        <time>2014-01-25T09:02:08Z</time>
      </trkpt>
      <trkpt lat="45.02082" lon="5.52744">
        <ele>1249.37</ele>
        <time>2014-01-25T09:02:22Z</time>
      </trkpt>
      <trkpt lat="45.0208" lon="5.5275">
        <ele>1246.97</ele>
        <time>2014-01-25T09:02:31Z</time>
      </trkpt>
      <trkpt lat="45.02079" lon="5.52751">
        <ele>1246.49</ele>
        <time>2014-01-25T09:02:33Z</time>
      </trkpt>
      <trkpt lat="45.02074" lon="5.52754">
        <ele>1245.53</ele>
        <time>2014-01-25T09:02:37Z</time>
      </trkpt>
      <trkpt lat="45.0206" lon="5.52768">
        <ele>1244.08</ele>
        <time>2014-01-25T09:02:55Z</time>
      </trkpt>
      <trkpt lat="45.02047" lon="5.52786">
        <ele>1245.04</ele>
        <time>2014-01-25T09:03:14Z</time>
      </trkpt>
      <trkpt lat="45.02043" lon="5.52812">
        <ele>1245.53</ele>
        <time>2014-01-25T09:03:31Z</time>
      </trkpt>
      <trkpt lat="45.02043" lon="5.5285">
        <ele>1242.64</ele>
        <time>2014-01-25T09:03:53Z</time>
      </trkpt>
      <trkpt lat="45.02045" lon="5.52888">
        <ele>1242.16</ele>
        <time>2014-01-25T09:04:15Z</time>
      </trkpt>
      <trkpt lat="45.02042" lon="5.52918">
        <ele>1236.87</ele>
        <time>2014-01-25T09:04:33Z</time>
      </trkpt>
      <trkpt lat="45.02039" lon="5.52922">
        <ele>1235.91</ele>
        <time>2014-01-25T09:04:37Z</time>
      </trkpt>
      <trkpt lat="45.02017" lon="5.52942">
        <ele>1238.8</ele>
        <time>2014-01-25T09:04:59Z</time>
      </trkpt>
      <trkpt lat="45.01997" lon="5.52947">
        <ele>1234.95</ele>
        <time>2014-01-25T09:05:17Z</time>
      </trkpt>
      <trkpt lat="45.01977" lon="5.52951">
        <ele>1236.87</ele>
        <time>2014-01-25T09:05:35Z</time>
      </trkpt>
      <trkpt lat="45.01956" lon="5.52954">
        <ele>1239.28</ele>
        <time>2014-01-25T09:05:53Z</time>
      </trkpt>
      <trkpt lat="45.01932" lon="5.52952">
        <ele>1240.72</ele>
        <time>2014-01-25T09:06:15Z</time>
      </trkpt>
      <trkpt lat="45.01907" lon="5.5295">
        <ele>1240.72</ele>
        <time>2014-01-25T09:06:34Z</time>
      </trkpt>
      <trkpt lat="45.01886" lon="5.52948">
        <ele>1240.72</ele>
        <time>2014-01-25T09:06:53Z</time>
      </trkpt>
      <trkpt lat="45.0187" lon="5.52938">
        <ele>1239.76</ele>
        <time>2014-01-25T09:07:11Z</time>
      </trkpt>
      <trkpt lat="45.01862" lon="5.52932">
        <ele>1240.24</ele>
        <time>2014-01-25T09:07:26Z</time>
      </trkpt>
      <trkpt lat="45.01864" lon="5.52931">
        <ele>1243.12</ele>
        <time>2014-01-25T09:07:46Z</time>
      </trkpt>
      <trkpt lat="45.0186" lon="5.52936">
        <ele>1242.16</ele>
        <time>2014-01-25T09:08:06Z</time>
      </trkpt>
      <trkpt lat="45.01865" lon="5.5293">
        <ele>1244.56</ele>
        <time>2014-01-25T09:08:32Z</time>
      </trkpt>
      <trkpt lat="45.01863" lon="5.5293">
        <ele>1246.01</ele>
        <time>2014-01-25T09:09:01Z</time>
      </trkpt>
      <trkpt lat="45.01865" lon="5.52933">
        <ele>1246.97</ele>
        <time>2014-01-25T09:09:30Z</time>
      </trkpt>
      <trkpt lat="45.0186" lon="5.52938">
        <ele>1246.97</ele>
        <time>2014-01-25T09:09:57Z</time>
      </trkpt>
      <trkpt lat="45.01865" lon="5.52934">
        <ele>1244.56</ele>
        <time>2014-01-25T09:10:14Z</time>
      </trkpt>
      <trkpt lat="45.01865" lon="5.52931">
        <ele>1243.12</ele>
        <time>2014-01-25T09:10:34Z</time>
      </trkpt>
      <trkpt lat="45.01861" lon="5.52935">
        <ele>1240.72</ele>
        <time>2014-01-25T09:11:00Z</time>
      </trkpt>
      <trkpt lat="45.01862" lon="5.52936">
        <ele>1242.16</ele>
        <time>2014-01-25T09:11:25Z</time>
      </trkpt>
      <trkpt lat="45.01862" lon="5.52936">
        <ele>1243.6</ele>
        <time>2014-01-25T09:11:43Z</time>
      </trkpt>
      <trkpt lat="45.01864" lon="5.52935">
        <ele>1243.12</ele>
        <time>2014-01-25T09:12:06Z</time>
      </trkpt>
      <trkpt lat="45.0186" lon="5.52937">
        <ele>1245.53</ele>
        <time>2014-01-25T09:12:33Z</time>
      </trkpt>
      <trkpt lat="45.01856" lon="5.52937">
        <ele>1243.12</ele>
        <time>2014-01-25T09:12:36Z</time>
      </trkpt>
      <trkpt lat="45.01842" lon="5.52947">
        <ele>1243.6</ele>
        <time>2014-01-25T09:12:51Z</time>
      </trkpt>
      <trkpt lat="45.01826" lon="5.5296">
        <ele>1245.53</ele>
        <time>2014-01-25T09:13:07Z</time>
      </trkpt>
      <trkpt lat="45.01819" lon="5.5296">
        <ele>1246.97</ele>
        <time>2014-01-25T09:13:22Z</time>
      </trkpt>
      <trkpt lat="45.0181" lon="5.52969">
        <ele>1245.04</ele>
        <time>2014-01-25T09:13:36Z</time>
      </trkpt>
      <trkpt lat="45.01809" lon="5.52969">
        <ele>1245.04</ele>
        <time>2014-01-25T09:13:37Z</time>
      </trkpt>
      <trkpt lat="45.01793" lon="5.52967">
        <ele>1245.53</ele>
        <time>2014-01-25T09:13:55Z</time>
      </trkpt>
      <trkpt lat="45.01792" lon="5.52968">
        <ele>1245.53</ele>
        <time>2014-01-25T09:13:57Z</time>
      </trkpt>
      <trkpt lat="45.01777" lon="5.52985">
        <ele>1248.89</ele>
        <time>2014-01-25T09:14:16Z</time>
      </trkpt>
      <trkpt lat="45.01765" lon="5.52993">
        <ele>1251.77</ele>
        <time>2014-01-25T09:14:34Z</time>
      </trkpt>
      <trkpt lat="45.01748" lon="5.53005">
        <ele>1251.29</ele>
        <time>2014-01-25T09:14:54Z</time>
      </trkpt>
      <trkpt lat="45.01733" lon="5.53017">
        <ele>1251.29</ele>
        <time>2014-01-25T09:15:14Z</time>
      </trkpt>
      <trkpt lat="45.01719" lon="5.53025">
        <ele>1252.74</ele>
        <time>2014-01-25T09:15:36Z</time>
      </trkpt>
      <trkpt lat="45.01706" lon="5.53034">
        <ele>1254.18</ele>
        <time>2014-01-25T09:15:59Z</time>
      </trkpt>
      <trkpt lat="45.01696" lon="5.53037">
        <ele>1260.43</ele>
        <time>2014-01-25T09:16:18Z</time>
      </trkpt>
      <trkpt lat="45.01689" lon="5.53043">
        <ele>1263.79</ele>
        <time>2014-01-25T09:16:34Z</time>
      </trkpt>
      <trkpt lat="45.01677" lon="5.53048">
        <ele>1264.75</ele>
        <time>2014-01-25T09:16:55Z</time>
      </trkpt>
      <trkpt lat="45.01664" lon="5.53048">
        <ele>1264.27</ele>
        <time>2014-01-25T09:17:14Z</time>
      </trkpt>
      <trkpt lat="45.01656" lon="5.53048">
        <ele>1264.27</ele>
        <time>2014-01-25T09:17:24Z</time>
      </trkpt>
      <trkpt lat="45.01643" lon="5.53049">
        <ele>1264.75</ele>
        <time>2014-01-25T09:17:43Z</time>
      </trkpt>
      <trkpt lat="45.0163" lon="5.53046">
        <ele>1263.79</ele>
        <time>2014-01-25T09:18:03Z</time>
      </trkpt>
      <trkpt lat="45.01619" lon="5.53046">
        <ele>1265.23</ele>
        <time>2014-01-25T09:18:23Z</time>
      </trkpt>
      <trkpt lat="45.01608" lon="5.53046">
        <ele>1270.04</ele>
        <time>2014-01-25T09:18:37Z</time>
      </trkpt>
      <trkpt lat="45.01593" lon="5.53045">
        <ele>1272.92</ele>
        <time>2014-01-25T09:18:56Z</time>
      </trkpt>
      <trkpt lat="45.01581" lon="5.53048">
        <ele>1275.33</ele>
        <time>2014-01-25T09:19:16Z</time>
      </trkpt>
      <trkpt lat="45.0157" lon="5.53053">
        <ele>1279.17</ele>
        <time>2014-01-25T09:19:33Z</time>
      </trkpt>
      <trkpt lat="45.0156" lon="5.53057">
        <ele>1281.09</ele>
        <time>2014-01-25T09:19:54Z</time>
      </trkpt>
      <trkpt lat="45.0155" lon="5.53064">
        <ele>1285.9</ele>
        <time>2014-01-25T09:20:13Z</time>
      </trkpt>
      <trkpt lat="45.01538" lon="5.53067">
        <ele>1290.23</ele>
        <time>2014-01-25T09:20:30Z</time>
      </trkpt>
      <trkpt lat="45.01531" lon="5.53073">
        <ele>1292.15</ele>
        <time>2014-01-25T09:20:48Z</time>
      </trkpt>
      <trkpt lat="45.01522" lon="5.53077">
        <ele>1293.59</ele>
        <time>2014-01-25T09:21:05Z</time>
      </trkpt>
      <trkpt lat="45.01519" lon="5.53083">
        <ele>1294.55</ele>
        <time>2014-01-25T09:21:27Z</time>
      </trkpt>
      <trkpt lat="45.01514" lon="5.53086">
        <ele>1298.88</ele>
        <time>2014-01-25T09:21:45Z</time>
      </trkpt>
      <trkpt lat="45.01505" lon="5.53093">
        <ele>1303.2</ele>
        <time>2014-01-25T09:22:05Z</time>
      </trkpt>
      <trkpt lat="45.01496" lon="5.53099">
        <ele>1306.57</ele>
        <time>2014-01-25T09:22:24Z</time>
      </trkpt>
      <trkpt lat="45.01489" lon="5.53105">
        <ele>1308.01</ele>
        <time>2014-01-25T09:22:38Z</time>
      </trkpt>
      <trkpt lat="45.01482" lon="5.53111">
        <ele>1309.93</ele>
        <time>2014-01-25T09:22:55Z</time>
      </trkpt>
      <trkpt lat="45.01477" lon="5.5312">
        <ele>1312.82</ele>
        <time>2014-01-25T09:23:09Z</time>
      </trkpt>
      <trkpt lat="45.01467" lon="5.53123">
        <ele>1317.62</ele>
        <time>2014-01-25T09:23:25Z</time>
      </trkpt>
      <trkpt lat="45.01459" lon="5.53129">
        <ele>1321.47</ele>
        <time>2014-01-25T09:23:40Z</time>
      </trkpt>
      <trkpt lat="45.0145" lon="5.53135">
        <ele>1323.39</ele>
        <time>2014-01-25T09:23:57Z</time>
      </trkpt>
      <trkpt lat="45.0144" lon="5.53138">
        <ele>1324.35</ele>
        <time>2014-01-25T09:24:13Z</time>
      </trkpt>
      <trkpt lat="45.01433" lon="5.53145">
        <ele>1325.31</ele>
        <time>2014-01-25T09:24:28Z</time>
      </trkpt>
      <trkpt lat="45.01422" lon="5.53147">
        <ele>1326.76</ele>
        <time>2014-01-25T09:24:45Z</time>
      </trkpt>
      <trkpt lat="45.01412" lon="5.53154">
        <ele>1326.28</ele>
        <time>2014-01-25T09:25:03Z</time>
      </trkpt>
      <trkpt lat="45.01398" lon="5.53156">
        <ele>1329.16</ele>
        <time>2014-01-25T09:25:23Z</time>
      </trkpt>
      <trkpt lat="45.01383" lon="5.53162">
        <ele>1331.08</ele>
        <time>2014-01-25T09:25:42Z</time>
      </trkpt>
      <trkpt lat="45.01377" lon="5.53164">
        <ele>1330.12</ele>
        <time>2014-01-25T09:25:53Z</time>
      </trkpt>
      <trkpt lat="45.01365" lon="5.53167">
        <ele>1331.08</ele>
        <time>2014-01-25T09:26:10Z</time>
      </trkpt>
      <trkpt lat="45.01361" lon="5.53165">
        <ele>1331.08</ele>
        <time>2014-01-25T09:26:17Z</time>
      </trkpt>
      <trkpt lat="45.01348" lon="5.53167">
        <ele>1333.01</ele>
        <time>2014-01-25T09:26:35Z</time>
      </trkpt>
      <trkpt lat="45.01333" lon="5.53168">
        <ele>1334.93</ele>
        <time>2014-01-25T09:26:52Z</time>
      </trkpt>
      <trkpt lat="45.0132" lon="5.5317">
        <ele>1339.73</ele>
        <time>2014-01-25T09:27:13Z</time>
      </trkpt>
      <trkpt lat="45.01304" lon="5.5317">
        <ele>1342.14</ele>
        <time>2014-01-25T09:27:31Z</time>
      </trkpt>
      <trkpt lat="45.01293" lon="5.53166">
        <ele>1343.1</ele>
        <time>2014-01-25T09:27:48Z</time>
      </trkpt>
      <trkpt lat="45.01281" lon="5.53168">
        <ele>1345.5</ele>
        <time>2014-01-25T09:28:06Z</time>
      </trkpt>
      <trkpt lat="45.01273" lon="5.53171">
        <ele>1346.46</ele>
        <time>2014-01-25T09:28:22Z</time>
      </trkpt>
      <trkpt lat="45.0126" lon="5.53157">
        <ele>1345.98</ele>
        <time>2014-01-25T09:28:44Z</time>
      </trkpt>
      <trkpt lat="45.01252" lon="5.53157">
        <ele>1348.39</ele>
        <time>2014-01-25T09:29:00Z</time>
      </trkpt>
      <trkpt lat="45.01245" lon="5.53154">
        <ele>1349.83</ele>
        <time>2014-01-25T09:29:16Z</time>
      </trkpt>
      <trkpt lat="45.01236" lon="5.53157">
        <ele>1352.71</ele>
        <time>2014-01-25T09:29:31Z</time>
      </trkpt>
      <trkpt lat="45.01232" lon="5.53164">
        <ele>1353.19</ele>
        <time>2014-01-25T09:29:48Z</time>
      </trkpt>
      <trkpt lat="45.0123" lon="5.53179">
        <ele>1356.08</ele>
        <time>2014-01-25T09:30:05Z</time>
      </trkpt>
      <trkpt lat="45.01223" lon="5.5319">
        <ele>1358.96</ele>
        <time>2014-01-25T09:30:23Z</time>
      </trkpt>
      <trkpt lat="45.01214" lon="5.53202">
        <ele>1358</ele>
        <time>2014-01-25T09:30:42Z</time>
      </trkpt>
      <trkpt lat="45.01206" lon="5.53211">
        <ele>1360.88</ele>
        <time>2014-01-25T09:31:01Z</time>
      </trkpt>
      <trkpt lat="45.01198" lon="5.53215">
        <ele>1365.69</ele>
        <time>2014-01-25T09:31:18Z</time>
      </trkpt>
      <trkpt lat="45.0119" lon="5.53221">
        <ele>1367.13</ele>
        <time>2014-01-25T09:31:33Z</time>
      </trkpt>
      <trkpt lat="45.01179" lon="5.53223">
        <ele>1370.98</ele>
        <time>2014-01-25T09:31:51Z</time>
      </trkpt>
      <trkpt lat="45.0117" lon="5.53225">
        <ele>1373.86</ele>
        <time>2014-01-25T09:32:08Z</time>
      </trkpt>
      <trkpt lat="45.0116" lon="5.53227">
        <ele>1373.86</ele>
        <time>2014-01-25T09:32:26Z</time>
      </trkpt>
      <trkpt lat="45.01151" lon="5.53224">
        <ele>1376.26</ele>
        <time>2014-01-25T09:32:42Z</time>
      </trkpt>
      <trkpt lat="45.01144" lon="5.53223">
        <ele>1378.19</ele>
        <time>2014-01-25T09:32:57Z</time>
      </trkpt>
      <trkpt lat="45.01137" lon="5.53226">
        <ele>1382.03</ele>
        <time>2014-01-25T09:33:11Z</time>
      </trkpt>
      <trkpt lat="45.01129" lon="5.53227">
        <ele>1384.92</ele>
        <time>2014-01-25T09:33:25Z</time>
      </trkpt>
      <trkpt lat="45.01121" lon="5.53229">
        <ele>1389.72</ele>
        <time>2014-01-25T09:33:41Z</time>
      </trkpt>
      <trkpt lat="45.01114" lon="5.53235">
        <ele>1393.09</ele>
        <time>2014-01-25T09:33:59Z</time>
      </trkpt>
      <trkpt lat="45.01105" lon="5.53244">
        <ele>1395.97</ele>
        <time>2014-01-25T09:34:19Z</time>
      </trkpt>
      <trkpt lat="45.01095" lon="5.5325">
        <ele>1396.93</ele>
        <time>2014-01-25T09:34:35Z</time>
      </trkpt>
      <trkpt lat="45.01087" lon="5.53258">
        <ele>1398.37</ele>
        <time>2014-01-25T09:34:51Z</time>
      </trkpt>
      <trkpt lat="45.01077" lon="5.53264">
        <ele>1401.26</ele>
        <time>2014-01-25T09:35:10Z</time>
      </trkpt>
      <trkpt lat="45.01072" lon="5.5327">
        <ele>1404.62</ele>
        <time>2014-01-25T09:35:27Z</time>
      </trkpt>
      <trkpt lat="45.01067" lon="5.53278">
        <ele>1407.99</ele>
        <time>2014-01-25T09:35:42Z</time>
      </trkpt>
      <trkpt lat="45.0106" lon="5.53284">
        <ele>1413.76</ele>
        <time>2014-01-25T09:36:00Z</time>
      </trkpt>
      <trkpt lat="45.01055" lon="5.53292">
        <ele>1419.52</ele>
        <time>2014-01-25T09:36:15Z</time>
      </trkpt>
      <trkpt lat="45.01049" lon="5.53302">
        <ele>1424.81</ele>
        <time>2014-01-25T09:36:33Z</time>
      </trkpt>
      <trkpt lat="45.01044" lon="5.53313">
        <ele>1428.18</ele>
        <time>2014-01-25T09:36:47Z</time>
      </trkpt>
      <trkpt lat="45.01036" lon="5.53318">
        <ele>1429.62</ele>
        <time>2014-01-25T09:37:02Z</time>
      </trkpt>
      <trkpt lat="45.01028" lon="5.53326">
        <ele>1432.02</ele>
        <time>2014-01-25T09:37:19Z</time>
      </trkpt>
      <trkpt lat="45.01025" lon="5.53332">
        <ele>1433.94</ele>
        <time>2014-01-25T09:37:33Z</time>
      </trkpt>
      <trkpt lat="45.01017" lon="5.53337">
        <ele>1435.87</ele>
        <time>2014-01-25T09:37:49Z</time>
      </trkpt>
      <trkpt lat="45.01008" lon="5.53346">
        <ele>1438.75</ele>
        <time>2014-01-25T09:38:08Z</time>
      </trkpt>
      <trkpt lat="45.00998" lon="5.53351">
        <ele>1440.67</ele>
        <time>2014-01-25T09:38:27Z</time>
      </trkpt>
      <trkpt lat="45.00989" lon="5.5335">
        <ele>1442.6</ele>
        <time>2014-01-25T09:38:44Z</time>
      </trkpt>
      <trkpt lat="45.00982" lon="5.53346">
        <ele>1441.63</ele>
        <time>2014-01-25T09:39:01Z</time>
      </trkpt>
      <trkpt lat="45.00977" lon="5.5335">
        <ele>1440.67</ele>
        <time>2014-01-25T09:39:16Z</time>
      </trkpt>
      <trkpt lat="45.0097" lon="5.53354">
        <ele>1441.63</ele>
        <time>2014-01-25T09:39:29Z</time>
      </trkpt>
      <trkpt lat="45.00962" lon="5.53355">
        <ele>1443.56</ele>
        <time>2014-01-25T09:39:46Z</time>
      </trkpt>
      <trkpt lat="45.00955" lon="5.53358">
        <ele>1444.04</ele>
        <time>2014-01-25T09:40:01Z</time>
      </trkpt>
      <trkpt lat="45.00944" lon="5.53363">
        <ele>1446.92</ele>
        <time>2014-01-25T09:40:21Z</time>
      </trkpt>
      <trkpt lat="45.00936" lon="5.53364">
        <ele>1448.84</ele>
        <time>2014-01-25T09:40:36Z</time>
      </trkpt>
      <trkpt lat="45.00926" lon="5.53364">
        <ele>1450.77</ele>
        <time>2014-01-25T09:40:53Z</time>
      </trkpt>
      <trkpt lat="45.00918" lon="5.53368">
        <ele>1451.73</ele>
        <time>2014-01-25T09:41:07Z</time>
      </trkpt>
      <trkpt lat="45.00912" lon="5.53368">
        <ele>1450.29</ele>
        <time>2014-01-25T09:41:24Z</time>
      </trkpt>
      <trkpt lat="45.00905" lon="5.53365">
        <ele>1451.73</ele>
        <time>2014-01-25T09:41:41Z</time>
      </trkpt>
      <trkpt lat="45.00895" lon="5.53367">
        <ele>1453.65</ele>
        <time>2014-01-25T09:41:57Z</time>
      </trkpt>
      <trkpt lat="45.0089" lon="5.53366">
        <ele>1454.13</ele>
        <time>2014-01-25T09:42:15Z</time>
      </trkpt>
      <trkpt lat="45.00885" lon="5.53366">
        <ele>1456.53</ele>
        <time>2014-01-25T09:42:33Z</time>
      </trkpt>
      <trkpt lat="45.00882" lon="5.53362">
        <ele>1457.98</ele>
        <time>2014-01-25T09:43:01Z</time>
      </trkpt>
      <trkpt lat="45.00886" lon="5.53347">
        <ele>1455.57</ele>
        <time>2014-01-25T09:43:31Z</time>
      </trkpt>
      <trkpt lat="45.00882" lon="5.53345">
        <ele>1455.09</ele>
        <time>2014-01-25T09:44:02Z</time>
      </trkpt>
      <trkpt lat="45.00889" lon="5.53363">
        <ele>1454.13</ele>
        <time>2014-01-25T09:44:34Z</time>
      </trkpt>
      <trkpt lat="45.00889" lon="5.53358">
        <ele>1457.98</ele>
        <time>2014-01-25T09:45:09Z</time>
      </trkpt>
      <trkpt lat="45.00887" lon="5.53352">
        <ele>1459.42</ele>
        <time>2014-01-25T09:45:33Z</time>
      </trkpt>
      <trkpt lat="45.0088" lon="5.53357">
        <ele>1454.13</ele>
        <time>2014-01-25T09:45:55Z</time>
      </trkpt>
      <trkpt lat="45.00867" lon="5.53351">
        <ele>1454.13</ele>
        <time>2014-01-25T09:46:15Z</time>
      </trkpt>
      <trkpt lat="45.00864" lon="5.53354">
        <ele>1454.13</ele>
        <time>2014-01-25T09:46:40Z</time>
      </trkpt>
      <trkpt lat="45.00849" lon="5.53337">
        <ele>1455.57</ele>
        <time>2014-01-25T09:47:05Z</time>
      </trkpt>
      <trkpt lat="45.00841" lon="5.53331">
        <ele>1457.5</ele>
        <time>2014-01-25T09:47:20Z</time>
      </trkpt>
      <trkpt lat="45.00833" lon="5.53326">
        <ele>1459.42</ele>
        <time>2014-01-25T09:47:33Z</time>
      </trkpt>
      <trkpt lat="45.00822" lon="5.53319">
        <ele>1463.26</ele>
        <time>2014-01-25T09:47:54Z</time>
      </trkpt>
      <trkpt lat="45.00809" lon="5.5332">
        <ele>1465.19</ele>
        <time>2014-01-25T09:48:16Z</time>
      </trkpt>
      <trkpt lat="45.008" lon="5.53319">
        <ele>1466.15</ele>
        <time>2014-01-25T09:48:33Z</time>
      </trkpt>
      <trkpt lat="45.00788" lon="5.53321">
        <ele>1467.59</ele>
        <time>2014-01-25T09:48:50Z</time>
      </trkpt>
      <trkpt lat="45.00779" lon="5.53325">
        <ele>1469.51</ele>
        <time>2014-01-25T09:49:06Z</time>
      </trkpt>
      <trkpt lat="45.00771" lon="5.53333">
        <ele>1473.84</ele>
        <time>2014-01-25T09:49:23Z</time>
      </trkpt>
      <trkpt lat="45.00761" lon="5.53336">
        <ele>1475.76</ele>
        <time>2014-01-25T09:49:38Z</time>
      </trkpt>
      <trkpt lat="45.00746" lon="5.53337">
        <ele>1476.72</ele>
        <time>2014-01-25T09:49:58Z</time>
      </trkpt>
      <trkpt lat="45.00734" lon="5.53337">
        <ele>1477.68</ele>
        <time>2014-01-25T09:50:13Z</time>
      </trkpt>
      <trkpt lat="45.00722" lon="5.53338">
        <ele>1478.65</ele>
        <time>2014-01-25T09:50:30Z</time>
      </trkpt>
      <trkpt lat="45.00713" lon="5.53346">
        <ele>1481.53</ele>
        <time>2014-01-25T09:50:46Z</time>
      </trkpt>
      <trkpt lat="45.00702" lon="5.53343">
        <ele>1484.41</ele>
        <time>2014-01-25T09:51:01Z</time>
      </trkpt>
      <trkpt lat="45.00689" lon="5.53343">
        <ele>1487.3</ele>
        <time>2014-01-25T09:51:18Z</time>
      </trkpt>
      <trkpt lat="45.00679" lon="5.53351">
        <ele>1489.7</ele>
        <time>2014-01-25T09:51:36Z</time>
      </trkpt>
      <trkpt lat="45.0067" lon="5.53361">
        <ele>1494.03</ele>
        <time>2014-01-25T09:51:53Z</time>
      </trkpt>
      <trkpt lat="45.00657" lon="5.53362">
        <ele>1497.87</ele>
        <time>2014-01-25T09:52:10Z</time>
      </trkpt>
      <trkpt lat="45.00646" lon="5.53358">
        <ele>1498.83</ele>
        <time>2014-01-25T09:52:27Z</time>
      </trkpt>
      <trkpt lat="45.00637" lon="5.53355">
        <ele>1499.31</ele>
        <time>2014-01-25T09:52:41Z</time>
      </trkpt>
      <trkpt lat="45.0063" lon="5.53354">
        <ele>1500.76</ele>
        <time>2014-01-25T09:52:53Z</time>
      </trkpt>
      <trkpt lat="45.00621" lon="5.5335">
        <ele>1502.68</ele>
        <time>2014-01-25T09:53:08Z</time>
      </trkpt>
      <trkpt lat="45.00614" lon="5.53347">
        <ele>1505.08</ele>
        <time>2014-01-25T09:53:21Z</time>
      </trkpt>
      <trkpt lat="45.00605" lon="5.53353">
        <ele>1509.89</ele>
        <time>2014-01-25T09:53:37Z</time>
      </trkpt>
      <trkpt lat="45.00596" lon="5.53354">
        <ele>1513.73</ele>
        <time>2014-01-25T09:53:55Z</time>
      </trkpt>
      <trkpt lat="45.00587" lon="5.53348">
        <ele>1514.21</ele>
        <time>2014-01-25T09:54:09Z</time>
      </trkpt>
      <trkpt lat="45.00576" lon="5.53356">
        <ele>1518.54</ele>
        <time>2014-01-25T09:54:29Z</time>
      </trkpt>
      <trkpt lat="45.00566" lon="5.53361">
        <ele>1521.9</ele>
        <time>2014-01-25T09:54:47Z</time>
      </trkpt>
      <trkpt lat="45.00556" lon="5.53366">
        <ele>1524.31</ele>
        <time>2014-01-25T09:55:03Z</time>
      </trkpt>
      <trkpt lat="45.00545" lon="5.53367">
        <ele>1526.71</ele>
        <time>2014-01-25T09:55:25Z</time>
      </trkpt>
      <trkpt lat="45.00539" lon="5.53367">
        <ele>1528.15</ele>
        <time>2014-01-25T09:55:40Z</time>
      </trkpt>
      <trkpt lat="45.00533" lon="5.53369">
        <ele>1529.11</ele>
        <time>2014-01-25T09:55:55Z</time>
      </trkpt>
      <trkpt lat="45.00525" lon="5.53371">
        <ele>1530.08</ele>
        <time>2014-01-25T09:56:13Z</time>
      </trkpt>
      <trkpt lat="45.00518" lon="5.5337">
        <ele>1533.92</ele>
        <time>2014-01-25T09:56:30Z</time>
      </trkpt>
      <trkpt lat="45.00512" lon="5.53371">
        <ele>1537.77</ele>
        <time>2014-01-25T09:56:45Z</time>
      </trkpt>
      <trkpt lat="45.00502" lon="5.53369">
        <ele>1543.05</ele>
        <time>2014-01-25T09:57:02Z</time>
      </trkpt>
      <trkpt lat="45.00494" lon="5.53367">
        <ele>1544.01</ele>
        <time>2014-01-25T09:57:19Z</time>
      </trkpt>
      <trkpt lat="45.00487" lon="5.53372">
        <ele>1544.98</ele>
        <time>2014-01-25T09:57:32Z</time>
      </trkpt>
      <trkpt lat="45.00481" lon="5.53375">
        <ele>1545.94</ele>
        <time>2014-01-25T09:57:46Z</time>
      </trkpt>
      <trkpt lat="45.00475" lon="5.53377">
        <ele>1547.86</ele>
        <time>2014-01-25T09:58:00Z</time>
      </trkpt>
      <trkpt lat="45.00467" lon="5.53379">
        <ele>1552.19</ele>
        <time>2014-01-25T09:58:17Z</time>
      </trkpt>
      <trkpt lat="45.00461" lon="5.53379">
        <ele>1554.59</ele>
        <time>2014-01-25T09:58:32Z</time>
      </trkpt>
      <trkpt lat="45.00458" lon="5.5338">
        <ele>1555.07</ele>
        <time>2014-01-25T09:58:51Z</time>
      </trkpt>
      <trkpt lat="45.00452" lon="5.53384">
        <ele>1556.03</ele>
        <time>2014-01-25T09:59:07Z</time>
      </trkpt>
      <trkpt lat="45.00444" lon="5.53382">
        <ele>1556.99</ele>
        <time>2014-01-25T09:59:25Z</time>
      </trkpt>
      <trkpt lat="45.00444" lon="5.53387">
        <ele>1557.95</ele>
        <time>2014-01-25T09:59:40Z</time>
      </trkpt>
      <trkpt lat="45.00437" lon="5.53387">
        <ele>1562.28</ele>
        <time>2014-01-25T09:59:57Z</time>
      </trkpt>
      <trkpt lat="45.0043" lon="5.53387">
        <ele>1567.57</ele>
        <time>2014-01-25T10:00:12Z</time>
      </trkpt>
      <trkpt lat="45.00424" lon="5.53387">
        <ele>1569.49</ele>
        <time>2014-01-25T10:00:27Z</time>
      </trkpt>
      <trkpt lat="45.00416" lon="5.53384">
        <ele>1572.85</ele>
        <time>2014-01-25T10:00:45Z</time>
      </trkpt>
      <trkpt lat="45.0041" lon="5.53383">
        <ele>1573.33</ele>
        <time>2014-01-25T10:01:03Z</time>
      </trkpt>
      <trkpt lat="45.00405" lon="5.53385">
        <ele>1573.33</ele>
        <time>2014-01-25T10:01:17Z</time>
      </trkpt>
      <trkpt lat="45.00397" lon="5.53381">
        <ele>1573.82</ele>
        <time>2014-01-25T10:01:32Z</time>
      </trkpt>
      <trkpt lat="45.00399" lon="5.53385">
        <ele>1574.3</ele>
        <time>2014-01-25T10:01:48Z</time>
      </trkpt>
      <trkpt lat="45.00401" lon="5.53398">
        <ele>1574.78</ele>
        <time>2014-01-25T10:02:06Z</time>
      </trkpt>
      <trkpt lat="45.00401" lon="5.5341">
        <ele>1575.74</ele>
        <time>2014-01-25T10:02:25Z</time>
      </trkpt>
      <trkpt lat="45.004" lon="5.53417">
        <ele>1582.95</ele>
        <time>2014-01-25T10:02:44Z</time>
      </trkpt>
      <trkpt lat="45.00392" lon="5.53417">
        <ele>1582.95</ele>
        <time>2014-01-25T10:03:00Z</time>
      </trkpt>
      <trkpt lat="45.00386" lon="5.53414">
        <ele>1587.75</ele>
        <time>2014-01-25T10:03:18Z</time>
      </trkpt>
      <trkpt lat="45.00379" lon="5.5341">
        <ele>1591.12</ele>
        <time>2014-01-25T10:03:35Z</time>
      </trkpt>
      <trkpt lat="45.00373" lon="5.53408">
        <ele>1595.45</ele>
        <time>2014-01-25T10:03:52Z</time>
      </trkpt>
      <trkpt lat="45.00373" lon="5.53405">
        <ele>1594.96</ele>
        <time>2014-01-25T10:04:07Z</time>
      </trkpt>
      <trkpt lat="45.00375" lon="5.53413">
        <ele>1596.41</ele>
        <time>2014-01-25T10:04:24Z</time>
      </trkpt>
      <trkpt lat="45.00377" lon="5.53423">
        <ele>1598.33</ele>
        <time>2014-01-25T10:04:41Z</time>
      </trkpt>
      <trkpt lat="45.00372" lon="5.53429">
        <ele>1599.29</ele>
        <time>2014-01-25T10:04:58Z</time>
      </trkpt>
      <trkpt lat="45.00362" lon="5.53426">
        <ele>1602.17</ele>
        <time>2014-01-25T10:05:16Z</time>
      </trkpt>
      <trkpt lat="45.00356" lon="5.53422">
        <ele>1605.06</ele>
        <time>2014-01-25T10:05:31Z</time>
      </trkpt>
      <trkpt lat="45.00349" lon="5.53418">
        <ele>1607.94</ele>
        <time>2014-01-25T10:05:48Z</time>
      </trkpt>
      <trkpt lat="45.00342" lon="5.53411">
        <ele>1611.31</ele>
        <time>2014-01-25T10:06:04Z</time>
      </trkpt>
      <trkpt lat="45.00335" lon="5.53405">
        <ele>1614.67</ele>
        <time>2014-01-25T10:06:20Z</time>
      </trkpt>
      <trkpt lat="45.00337" lon="5.53406">
        <ele>1616.11</ele>
        <time>2014-01-25T10:06:34Z</time>
      </trkpt>
      <trkpt lat="45.00339" lon="5.53415">
        <ele>1617.56</ele>
        <time>2014-01-25T10:06:50Z</time>
      </trkpt>
      <trkpt lat="45.00339" lon="5.53427">
        <ele>1619.48</ele>
        <time>2014-01-25T10:07:07Z</time>
      </trkpt>
      <trkpt lat="45.00337" lon="5.53437">
        <ele>1622.36</ele>
        <time>2014-01-25T10:07:23Z</time>
      </trkpt>
      <trkpt lat="45.0033" lon="5.53436">
        <ele>1622.84</ele>
        <time>2014-01-25T10:07:38Z</time>
      </trkpt>
      <trkpt lat="45.00324" lon="5.53434">
        <ele>1625.73</ele>
        <time>2014-01-25T10:07:55Z</time>
      </trkpt>
      <trkpt lat="45.00317" lon="5.53432">
        <ele>1627.65</ele>
        <time>2014-01-25T10:08:12Z</time>
      </trkpt>
      <trkpt lat="45.00313" lon="5.53427">
        <ele>1630.05</ele>
        <time>2014-01-25T10:08:28Z</time>
      </trkpt>
      <trkpt lat="45.00314" lon="5.53427">
        <ele>1631.98</ele>
        <time>2014-01-25T10:08:44Z</time>
      </trkpt>
      <trkpt lat="45.00313" lon="5.53435">
        <ele>1632.46</ele>
        <time>2014-01-25T10:08:59Z</time>
      </trkpt>
      <trkpt lat="45.00313" lon="5.53443">
        <ele>1634.38</ele>
        <time>2014-01-25T10:09:15Z</time>
      </trkpt>
      <trkpt lat="45.00312" lon="5.53453">
        <ele>1635.34</ele>
        <time>2014-01-25T10:09:34Z</time>
      </trkpt>
      <trkpt lat="45.0031" lon="5.5346">
        <ele>1636.78</ele>
        <time>2014-01-25T10:09:51Z</time>
      </trkpt>
      <trkpt lat="45.00304" lon="5.53462">
        <ele>1638.22</ele>
        <time>2014-01-25T10:10:03Z</time>
      </trkpt>
      <trkpt lat="45.003" lon="5.53458">
        <ele>1641.59</ele>
        <time>2014-01-25T10:10:18Z</time>
      </trkpt>
      <trkpt lat="45.00292" lon="5.53457">
        <ele>1642.55</ele>
        <time>2014-01-25T10:10:36Z</time>
      </trkpt>
      <trkpt lat="45.00284" lon="5.53455">
        <ele>1642.07</ele>
        <time>2014-01-25T10:10:54Z</time>
      </trkpt>
      <trkpt lat="45.00278" lon="5.53453">
        <ele>1645.43</ele>
        <time>2014-01-25T10:11:10Z</time>
      </trkpt>
      <trkpt lat="45.0027" lon="5.5345">
        <ele>1649.76</ele>
        <time>2014-01-25T10:11:27Z</time>
      </trkpt>
      <trkpt lat="45.00265" lon="5.53446">
        <ele>1654.09</ele>
        <time>2014-01-25T10:11:43Z</time>
      </trkpt>
      <trkpt lat="45.00258" lon="5.53444">
        <ele>1656.49</ele>
        <time>2014-01-25T10:11:57Z</time>
      </trkpt>
      <trkpt lat="45.00249" lon="5.53444">
        <ele>1659.37</ele>
        <time>2014-01-25T10:12:13Z</time>
      </trkpt>
      <trkpt lat="45.00246" lon="5.53439">
        <ele>1656.49</ele>
        <time>2014-01-25T10:12:31Z</time>
      </trkpt>
      <trkpt lat="45.00245" lon="5.53438">
        <ele>1655.05</ele>
        <time>2014-01-25T10:12:51Z</time>
      </trkpt>
      <trkpt lat="45.00247" lon="5.53444">
        <ele>1651.68</ele>
        <time>2014-01-25T10:13:09Z</time>
      </trkpt>
      <trkpt lat="45.00249" lon="5.53452">
        <ele>1653.6</ele>
        <time>2014-01-25T10:13:24Z</time>
      </trkpt>
      <trkpt lat="45.0025" lon="5.53463">
        <ele>1656.49</ele>
        <time>2014-01-25T10:13:41Z</time>
      </trkpt>
      <trkpt lat="45.00253" lon="5.53473">
        <ele>1656.97</ele>
        <time>2014-01-25T10:13:58Z</time>
      </trkpt>
      <trkpt lat="45.00255" lon="5.53486">
        <ele>1657.93</ele>
        <time>2014-01-25T10:14:16Z</time>
      </trkpt>
      <trkpt lat="45.00253" lon="5.53494">
        <ele>1658.89</ele>
        <time>2014-01-25T10:14:33Z</time>
      </trkpt>
      <trkpt lat="45.00248" lon="5.53491">
        <ele>1659.85</ele>
        <time>2014-01-25T10:14:41Z</time>
      </trkpt>
      <trkpt lat="45.00248" lon="5.53478">
        <ele>1658.89</ele>
        <time>2014-01-25T10:14:46Z</time>
      </trkpt>
      <trkpt lat="45.00243" lon="5.53456">
        <ele>1654.09</ele>
        <time>2014-01-25T10:14:59Z</time>
      </trkpt>
      <trkpt lat="45.00242" lon="5.5344">
        <ele>1650.24</ele>
        <time>2014-01-25T10:15:12Z</time>
      </trkpt>
      <trkpt lat="45.00239" lon="5.53446">
        <ele>1648.32</ele>
        <time>2014-01-25T10:15:29Z</time>
      </trkpt>
      <trkpt lat="45.00231" lon="5.53448">
        <ele>1648.32</ele>
        <time>2014-01-25T10:15:47Z</time>
      </trkpt>
      <trkpt lat="45.0023" lon="5.53449">
        <ele>1648.32</ele>
        <time>2014-01-25T10:15:50Z</time>
      </trkpt>
      <trkpt lat="45.00224" lon="5.53461">
        <ele>1646.4</ele>
        <time>2014-01-25T10:16:02Z</time>
      </trkpt>
      <trkpt lat="45.00223" lon="5.53465">
        <ele>1645.91</ele>
        <time>2014-01-25T10:16:04Z</time>
      </trkpt>
      <trkpt lat="45.00215" lon="5.53471">
        <ele>1644.47</ele>
        <time>2014-01-25T10:16:08Z</time>
      </trkpt>
      <trkpt lat="45.00208" lon="5.5348">
        <ele>1641.11</ele>
        <time>2014-01-25T10:16:19Z</time>
      </trkpt>
      <trkpt lat="45.00205" lon="5.53486">
        <ele>1639.19</ele>
        <time>2014-01-25T10:16:24Z</time>
      </trkpt>
      <trkpt lat="45.00202" lon="5.53498">
        <ele>1636.78</ele>
        <time>2014-01-25T10:16:37Z</time>
      </trkpt>
      <trkpt lat="45.00202" lon="5.53516">
        <ele>1634.38</ele>
        <time>2014-01-25T10:16:50Z</time>
      </trkpt>
      <trkpt lat="45.00197" lon="5.53523">
        <ele>1631.49</ele>
        <time>2014-01-25T10:17:05Z</time>
      </trkpt>
      <trkpt lat="45.00198" lon="5.53523">
        <ele>1631.01</ele>
        <time>2014-01-25T10:17:20Z</time>
      </trkpt>
      <trkpt lat="45.00197" lon="5.53523">
        <ele>1630.53</ele>
        <time>2014-01-25T10:17:46Z</time>
      </trkpt>
      <trkpt lat="45.00196" lon="5.53527">
        <ele>1629.57</ele>
        <time>2014-01-25T10:17:55Z</time>
      </trkpt>
      <trkpt lat="45.0019" lon="5.5353">
        <ele>1628.61</ele>
        <time>2014-01-25T10:18:07Z</time>
      </trkpt>
      <trkpt lat="45.00187" lon="5.53534">
        <ele>1626.69</ele>
        <time>2014-01-25T10:18:21Z</time>
      </trkpt>
      <trkpt lat="45.00192" lon="5.53539">
        <ele>1625.73</ele>
        <time>2014-01-25T10:18:36Z</time>
      </trkpt>
      <trkpt lat="45.00189" lon="5.53549">
        <ele>1627.65</ele>
        <time>2014-01-25T10:18:56Z</time>
      </trkpt>
      <trkpt lat="45.00187" lon="5.53558">
        <ele>1629.57</ele>
        <time>2014-01-25T10:19:14Z</time>
      </trkpt>
      <trkpt lat="45.00182" lon="5.53573">
        <ele>1630.53</ele>
        <time>2014-01-25T10:19:30Z</time>
      </trkpt>
      <trkpt lat="45.00178" lon="5.53589">
        <ele>1628.61</ele>
        <time>2014-01-25T10:19:49Z</time>
      </trkpt>
      <trkpt lat="45.00174" lon="5.53602">
        <ele>1628.13</ele>
        <time>2014-01-25T10:20:04Z</time>
      </trkpt>
      <trkpt lat="45.00171" lon="5.53609">
        <ele>1627.17</ele>
        <time>2014-01-25T10:20:19Z</time>
      </trkpt>
      <trkpt lat="45.0016" lon="5.53615">
        <ele>1630.53</ele>
        <time>2014-01-25T10:20:34Z</time>
      </trkpt>
      <trkpt lat="45.00155" lon="5.53623">
        <ele>1633.9</ele>
        <time>2014-01-25T10:20:49Z</time>
      </trkpt>
      <trkpt lat="45.00153" lon="5.53622">
        <ele>1637.74</ele>
        <time>2014-01-25T10:21:08Z</time>
      </trkpt>
      <trkpt lat="45.00152" lon="5.53626">
        <ele>1639.67</ele>
        <time>2014-01-25T10:21:29Z</time>
      </trkpt>
      <trkpt lat="45.00152" lon="5.53627">
        <ele>1640.63</ele>
        <time>2014-01-25T10:21:57Z</time>
      </trkpt>
      <trkpt lat="45.00154" lon="5.5363">
        <ele>1643.99</ele>
        <time>2014-01-25T10:22:20Z</time>
      </trkpt>
      <trkpt lat="45.00147" lon="5.5364">
        <ele>1647.36</ele>
        <time>2014-01-25T10:22:37Z</time>
      </trkpt>
      <trkpt lat="45.00151" lon="5.53646">
        <ele>1652.16</ele>
        <time>2014-01-25T10:22:53Z</time>
      </trkpt>
      <trkpt lat="45.00153" lon="5.53644">
        <ele>1656.01</ele>
        <time>2014-01-25T10:23:10Z</time>
      </trkpt>
      <trkpt lat="45.00155" lon="5.53656">
        <ele>1659.37</ele>
        <time>2014-01-25T10:23:26Z</time>
      </trkpt>
      <trkpt lat="45.00154" lon="5.53665">
        <ele>1660.81</ele>
        <time>2014-01-25T10:23:43Z</time>
      </trkpt>
      <trkpt lat="45.00144" lon="5.53674">
        <ele>1661.3</ele>
        <time>2014-01-25T10:23:58Z</time>
      </trkpt>
      <trkpt lat="45.00134" lon="5.5368">
        <ele>1662.74</ele>
        <time>2014-01-25T10:24:13Z</time>
      </trkpt>
      <trkpt lat="45.00135" lon="5.53683">
        <ele>1664.18</ele>
        <time>2014-01-25T10:24:29Z</time>
      </trkpt>
      <trkpt lat="45.00137" lon="5.53687">
        <ele>1665.14</ele>
        <time>2014-01-25T10:24:45Z</time>
      </trkpt>
      <trkpt lat="45.00142" lon="5.53688">
        <ele>1665.14</ele>
        <time>2014-01-25T10:25:01Z</time>
      </trkpt>
      <trkpt lat="45.00138" lon="5.53694">
        <ele>1665.14</ele>
        <time>2014-01-25T10:25:16Z</time>
      </trkpt>
      <trkpt lat="45.00135" lon="5.53703">
        <ele>1669.95</ele>
        <time>2014-01-25T10:25:34Z</time>
      </trkpt>
      <trkpt lat="45.00134" lon="5.53705">
        <ele>1673.79</ele>
        <time>2014-01-25T10:25:49Z</time>
      </trkpt>
      <trkpt lat="45.00136" lon="5.53711">
        <ele>1675.23</ele>
        <time>2014-01-25T10:26:03Z</time>
      </trkpt>
      <trkpt lat="45.00138" lon="5.53718">
        <ele>1676.2</ele>
        <time>2014-01-25T10:26:19Z</time>
      </trkpt>
      <trkpt lat="45.00132" lon="5.53727">
        <ele>1672.83</ele>
        <time>2014-01-25T10:26:33Z</time>
      </trkpt>
      <trkpt lat="45.00124" lon="5.5373">
        <ele>1670.43</ele>
        <time>2014-01-25T10:26:48Z</time>
      </trkpt>
      <trkpt lat="45.00123" lon="5.53739">
        <ele>1670.91</ele>
        <time>2014-01-25T10:27:02Z</time>
      </trkpt>
      <trkpt lat="45.00115" lon="5.53742">
        <ele>1669.47</ele>
        <time>2014-01-25T10:27:16Z</time>
      </trkpt>
      <trkpt lat="45.00106" lon="5.5375">
        <ele>1670.91</ele>
        <time>2014-01-25T10:27:32Z</time>
      </trkpt>
      <trkpt lat="45.00099" lon="5.53759">
        <ele>1671.87</ele>
        <time>2014-01-25T10:27:45Z</time>
      </trkpt>
      <trkpt lat="45.00096" lon="5.53762">
        <ele>1672.83</ele>
        <time>2014-01-25T10:28:06Z</time>
      </trkpt>
      <trkpt lat="45.00095" lon="5.53766">
        <ele>1672.35</ele>
        <time>2014-01-25T10:28:27Z</time>
      </trkpt>
      <trkpt lat="45.00096" lon="5.53763">
        <ele>1672.35</ele>
        <time>2014-01-25T10:28:46Z</time>
      </trkpt>
      <trkpt lat="45.00096" lon="5.53758">
        <ele>1674.75</ele>
        <time>2014-01-25T10:29:04Z</time>
      </trkpt>
      <trkpt lat="45.00099" lon="5.53772">
        <ele>1677.64</ele>
        <time>2014-01-25T10:29:20Z</time>
      </trkpt>
      <trkpt lat="45.00103" lon="5.53779">
        <ele>1680.52</ele>
        <time>2014-01-25T10:29:37Z</time>
      </trkpt>
      <trkpt lat="45.00102" lon="5.53787">
        <ele>1683.41</ele>
        <time>2014-01-25T10:29:52Z</time>
      </trkpt>
      <trkpt lat="45.00104" lon="5.53798">
        <ele>1687.25</ele>
        <time>2014-01-25T10:30:09Z</time>
      </trkpt>
      <trkpt lat="45.00105" lon="5.53812">
        <ele>1689.65</ele>
        <time>2014-01-25T10:30:24Z</time>
      </trkpt>
      <trkpt lat="45.00108" lon="5.53823">
        <ele>1691.1</ele>
        <time>2014-01-25T10:30:41Z</time>
      </trkpt>
      <trkpt lat="45.00111" lon="5.53832">
        <ele>1692.06</ele>
        <time>2014-01-25T10:30:57Z</time>
      </trkpt>
      <trkpt lat="45.00112" lon="5.53837">
        <ele>1693.5</ele>
        <time>2014-01-25T10:31:16Z</time>
      </trkpt>
      <trkpt lat="45.0011" lon="5.53835">
        <ele>1691.58</ele>
        <time>2014-01-25T10:31:44Z</time>
      </trkpt>
      <trkpt lat="45.00119" lon="5.53839">
        <ele>1696.38</ele>
        <time>2014-01-25T10:32:02Z</time>
      </trkpt>
      <trkpt lat="45.00124" lon="5.53848">
        <ele>1700.23</ele>
        <time>2014-01-25T10:32:19Z</time>
      </trkpt>
      <trkpt lat="45.00128" lon="5.53857">
        <ele>1702.15</ele>
        <time>2014-01-25T10:32:34Z</time>
      </trkpt>
      <trkpt lat="45.0013" lon="5.53863">
        <ele>1704.07</ele>
        <time>2014-01-25T10:32:49Z</time>
      </trkpt>
      <trkpt lat="45.00131" lon="5.53872">
        <ele>1706</ele>
        <time>2014-01-25T10:33:08Z</time>
      </trkpt>
      <trkpt lat="45.00132" lon="5.53879">
        <ele>1706.48</ele>
        <time>2014-01-25T10:33:24Z</time>
      </trkpt>
      <trkpt lat="45.0013" lon="5.5389">
        <ele>1706.96</ele>
        <time>2014-01-25T10:33:41Z</time>
      </trkpt>
      <trkpt lat="45.00128" lon="5.539">
        <ele>1709.84</ele>
        <time>2014-01-25T10:34:00Z</time>
      </trkpt>
      <trkpt lat="45.00122" lon="5.53907">
        <ele>1710.32</ele>
        <time>2014-01-25T10:34:16Z</time>
      </trkpt>
      <trkpt lat="45.00115" lon="5.53916">
        <ele>1709.36</ele>
        <time>2014-01-25T10:34:35Z</time>
      </trkpt>
      <trkpt lat="45.00115" lon="5.53919">
        <ele>1709.84</ele>
        <time>2014-01-25T10:34:54Z</time>
      </trkpt>
      <trkpt lat="45.00112" lon="5.53926">
        <ele>1712.25</ele>
        <time>2014-01-25T10:35:11Z</time>
      </trkpt>
      <trkpt lat="45.00112" lon="5.5393">
        <ele>1713.69</ele>
        <time>2014-01-25T10:35:17Z</time>
      </trkpt>
      <trkpt lat="45.0011" lon="5.53933">
        <ele>1718.49</ele>
        <time>2014-01-25T10:35:32Z</time>
      </trkpt>
      <trkpt lat="45.00115" lon="5.53948">
        <ele>1722.82</ele>
        <time>2014-01-25T10:35:51Z</time>
      </trkpt>
      <trkpt lat="45.00119" lon="5.53959">
        <ele>1729.55</ele>
        <time>2014-01-25T10:36:10Z</time>
      </trkpt>
      <trkpt lat="45.00119" lon="5.53962">
        <ele>1734.84</ele>
        <time>2014-01-25T10:36:32Z</time>
      </trkpt>
      <trkpt lat="45.00118" lon="5.53977">
        <ele>1735.32</ele>
        <time>2014-01-25T10:36:51Z</time>
      </trkpt>
      <trkpt lat="45.00118" lon="5.53991">
        <ele>1737.72</ele>
        <time>2014-01-25T10:37:12Z</time>
      </trkpt>
      <trkpt lat="45.00116" lon="5.5399">
        <ele>1735.8</ele>
        <time>2014-01-25T10:37:40Z</time>
      </trkpt>
      <trkpt lat="45.00119" lon="5.53997">
        <ele>1736.28</ele>
        <time>2014-01-25T10:38:02Z</time>
      </trkpt>
      <trkpt lat="45.00118" lon="5.54">
        <ele>1738.2</ele>
        <time>2014-01-25T10:38:22Z</time>
      </trkpt>
      <trkpt lat="45.00116" lon="5.53999">
        <ele>1742.05</ele>
        <time>2014-01-25T10:38:49Z</time>
      </trkpt>
      <trkpt lat="45.00116" lon="5.53997">
        <ele>1746.37</ele>
        <time>2014-01-25T10:39:20Z</time>
      </trkpt>
      <trkpt lat="45.00115" lon="5.53999">
        <ele>1737.24</ele>
        <time>2014-01-25T10:39:48Z</time>
      </trkpt>
      <trkpt lat="45.00116" lon="5.5401">
        <ele>1736.28</ele>
        <time>2014-01-25T10:40:08Z</time>
      </trkpt>
      <trkpt lat="45.00118" lon="5.54017">
        <ele>1735.8</ele>
        <time>2014-01-25T10:40:28Z</time>
      </trkpt>
      <trkpt lat="45.00122" lon="5.54028">
        <ele>1733.88</ele>
        <time>2014-01-25T10:40:47Z</time>
      </trkpt>
      <trkpt lat="45.00124" lon="5.54038">
        <ele>1735.32</ele>
        <time>2014-01-25T10:41:06Z</time>
      </trkpt>
      <trkpt lat="45.00121" lon="5.54042">
        <ele>1737.24</ele>
        <time>2014-01-25T10:41:25Z</time>
      </trkpt>
      <trkpt lat="45.00124" lon="5.54051">
        <ele>1738.68</ele>
        <time>2014-01-25T10:41:40Z</time>
      </trkpt>
      <trkpt lat="45.00117" lon="5.5406">
        <ele>1741.57</ele>
        <time>2014-01-25T10:41:56Z</time>
      </trkpt>
      <trkpt lat="45.00116" lon="5.54061">
        <ele>1742.53</ele>
        <time>2014-01-25T10:42:10Z</time>
      </trkpt>
      <trkpt lat="45.00122" lon="5.54062">
        <ele>1744.45</ele>
        <time>2014-01-25T10:42:30Z</time>
      </trkpt>
      <trkpt lat="45.0012" lon="5.54067">
        <ele>1747.81</ele>
        <time>2014-01-25T10:42:46Z</time>
      </trkpt>
      <trkpt lat="45.00119" lon="5.54076">
        <ele>1746.37</ele>
        <time>2014-01-25T10:43:04Z</time>
      </trkpt>
      <trkpt lat="45.0012" lon="5.54077">
        <ele>1749.74</ele>
        <time>2014-01-25T10:43:17Z</time>
      </trkpt>
      <trkpt lat="45.00116" lon="5.54082">
        <ele>1753.1</ele>
        <time>2014-01-25T10:43:34Z</time>
      </trkpt>
      <trkpt lat="45.0012" lon="5.54083">
        <ele>1756.47</ele>
        <time>2014-01-25T10:43:47Z</time>
      </trkpt>
      <trkpt lat="45.00121" lon="5.54084">
        <ele>1757.91</ele>
        <time>2014-01-25T10:44:02Z</time>
      </trkpt>
      <trkpt lat="45.00118" lon="5.54092">
        <ele>1759.35</ele>
        <time>2014-01-25T10:44:16Z</time>
      </trkpt>
      <trkpt lat="45.00118" lon="5.5409">
        <ele>1759.83</ele>
        <time>2014-01-25T10:44:34Z</time>
      </trkpt>
      <trkpt lat="45.00122" lon="5.54096">
        <ele>1762.23</ele>
        <time>2014-01-25T10:44:49Z</time>
      </trkpt>
      <trkpt lat="45.0012" lon="5.541">
        <ele>1765.12</ele>
        <time>2014-01-25T10:45:04Z</time>
      </trkpt>
      <trkpt lat="45.00115" lon="5.54108">
        <ele>1768.48</ele>
        <time>2014-01-25T10:45:20Z</time>
      </trkpt>
      <trkpt lat="45.00112" lon="5.54109">
        <ele>1771.85</ele>
        <time>2014-01-25T10:45:37Z</time>
      </trkpt>
      <trkpt lat="45.00117" lon="5.5411">
        <ele>1771.85</ele>
        <time>2014-01-25T10:45:52Z</time>
      </trkpt>
      <trkpt lat="45.00121" lon="5.5412">
        <ele>1774.73</ele>
        <time>2014-01-25T10:46:08Z</time>
      </trkpt>
      <trkpt lat="45.00121" lon="5.54121">
        <ele>1775.69</ele>
        <time>2014-01-25T10:46:24Z</time>
      </trkpt>
      <trkpt lat="45.00118" lon="5.54128">
        <ele>1777.13</ele>
        <time>2014-01-25T10:46:36Z</time>
      </trkpt>
      <trkpt lat="45.0011" lon="5.54129">
        <ele>1778.1</ele>
        <time>2014-01-25T10:46:52Z</time>
      </trkpt>
      <trkpt lat="45.00109" lon="5.54125">
        <ele>1779.06</ele>
        <time>2014-01-25T10:47:13Z</time>
      </trkpt>
      <trkpt lat="45.0011" lon="5.54133">
        <ele>1778.58</ele>
        <time>2014-01-25T10:47:38Z</time>
      </trkpt>
      <trkpt lat="45.00107" lon="5.54144">
        <ele>1780.02</ele>
        <time>2014-01-25T10:47:52Z</time>
      </trkpt>
      <trkpt lat="45.00099" lon="5.54155">
        <ele>1781.94</ele>
        <time>2014-01-25T10:48:08Z</time>
      </trkpt>
      <trkpt lat="45.00096" lon="5.54166">
        <ele>1785.79</ele>
        <time>2014-01-25T10:48:25Z</time>
      </trkpt>
      <trkpt lat="45.00086" lon="5.54172">
        <ele>1786.75</ele>
        <time>2014-01-25T10:48:42Z</time>
      </trkpt>
      <trkpt lat="45.00077" lon="5.54175">
        <ele>1786.75</ele>
        <time>2014-01-25T10:48:56Z</time>
      </trkpt>
      <trkpt lat="45.0007" lon="5.54178">
        <ele>1789.15</ele>
        <time>2014-01-25T10:49:10Z</time>
      </trkpt>
      <trkpt lat="45.00061" lon="5.54183">
        <ele>1787.23</ele>
        <time>2014-01-25T10:49:28Z</time>
      </trkpt>
      <trkpt lat="45.00055" lon="5.54189">
        <ele>1790.11</ele>
        <time>2014-01-25T10:49:48Z</time>
      </trkpt>
      <trkpt lat="45.00054" lon="5.54189">
        <ele>1789.63</ele>
        <time>2014-01-25T10:50:14Z</time>
      </trkpt>
      <trkpt lat="45.00054" lon="5.54189">
        <ele>1790.59</ele>
        <time>2014-01-25T10:50:37Z</time>
      </trkpt>
      <trkpt lat="45.00051" lon="5.54191">
        <ele>1791.55</ele>
        <time>2014-01-25T10:51:04Z</time>
      </trkpt>
      <trkpt lat="45.00051" lon="5.54189">
        <ele>1789.63</ele>
        <time>2014-01-25T10:51:20Z</time>
      </trkpt>
      <trkpt lat="45.00047" lon="5.54191">
        <ele>1789.63</ele>
        <time>2014-01-25T10:51:24Z</time>
      </trkpt>
      <trkpt lat="45.00018" lon="5.542">
        <ele>1784.34</ele>
        <time>2014-01-25T10:51:34Z</time>
      </trkpt>
      <trkpt lat="45.00003" lon="5.54196">
        <ele>1783.38</ele>
        <time>2014-01-25T10:51:47Z</time>
      </trkpt>
      <trkpt lat="44.99983" lon="5.5419">
        <ele>1781.46</ele>
        <time>2014-01-25T10:52:03Z</time>
      </trkpt>
      <trkpt lat="44.99961" lon="5.54188">
        <ele>1776.65</ele>
        <time>2014-01-25T10:52:12Z</time>
      </trkpt>
      <trkpt lat="44.99956" lon="5.54187">
        <ele>1773.29</ele>
        <time>2014-01-25T10:52:25Z</time>
      </trkpt>
      <trkpt lat="44.99949" lon="5.54188">
        <ele>1771.85</ele>
        <time>2014-01-25T10:52:50Z</time>
      </trkpt>
      <trkpt lat="44.99949" lon="5.54186">
        <ele>1769.92</ele>
        <time>2014-01-25T10:53:02Z</time>
      </trkpt>
      <trkpt lat="44.99958" lon="5.54196">
        <ele>1768.96</ele>
        <time>2014-01-25T10:53:18Z</time>
      </trkpt>
      <trkpt lat="44.99953" lon="5.54203">
        <ele>1766.56</ele>
        <time>2014-01-25T10:53:32Z</time>
      </trkpt>
      <trkpt lat="44.99952" lon="5.54194">
        <ele>1767.04</ele>
        <time>2014-01-25T10:53:45Z</time>
      </trkpt>
      <trkpt lat="44.99951" lon="5.54192">
        <ele>1768</ele>
        <time>2014-01-25T10:53:48Z</time>
      </trkpt>
      <trkpt lat="44.99942" lon="5.54187">
        <ele>1769.44</ele>
        <time>2014-01-25T10:54:07Z</time>
      </trkpt>
      <trkpt lat="44.99941" lon="5.54185">
        <ele>1768.48</ele>
        <time>2014-01-25T10:54:24Z</time>
      </trkpt>
      <trkpt lat="44.9994" lon="5.54184">
        <ele>1768.96</ele>
        <time>2014-01-25T10:54:41Z</time>
      </trkpt>
      <trkpt lat="44.99937" lon="5.54182">
        <ele>1768.96</ele>
        <time>2014-01-25T10:54:59Z</time>
      </trkpt>
      <trkpt lat="44.99935" lon="5.54179">
        <ele>1767.52</ele>
        <time>2014-01-25T10:55:11Z</time>
      </trkpt>
      <trkpt lat="44.99937" lon="5.54178">
        <ele>1766.56</ele>
        <time>2014-01-25T10:55:22Z</time>
      </trkpt>
      <trkpt lat="44.99933" lon="5.54176">
        <ele>1765.6</ele>
        <time>2014-01-25T10:55:30Z</time>
      </trkpt>
      <trkpt lat="44.99916" lon="5.54176">
        <ele>1763.68</ele>
        <time>2014-01-25T10:55:36Z</time>
      </trkpt>
      <trkpt lat="44.99907" lon="5.54177">
        <ele>1761.75</ele>
        <time>2014-01-25T10:55:51Z</time>
      </trkpt>
      <trkpt lat="44.99898" lon="5.5418">
        <ele>1761.75</ele>
        <time>2014-01-25T10:56:07Z</time>
      </trkpt>
      <trkpt lat="44.99879" lon="5.5418">
        <ele>1758.39</ele>
        <time>2014-01-25T10:56:25Z</time>
      </trkpt>
      <trkpt lat="44.99859" lon="5.54176">
        <ele>1757.43</ele>
        <time>2014-01-25T10:56:41Z</time>
      </trkpt>
      <trkpt lat="44.99847" lon="5.54179">
        <ele>1757.91</ele>
        <time>2014-01-25T10:56:58Z</time>
      </trkpt>
      <trkpt lat="44.99846" lon="5.54179">
        <ele>1759.35</ele>
        <time>2014-01-25T10:57:15Z</time>
      </trkpt>
      <trkpt lat="44.99846" lon="5.54183">
        <ele>1759.83</ele>
        <time>2014-01-25T10:57:26Z</time>
      </trkpt>
      <trkpt lat="44.99836" lon="5.54206">
        <ele>1754.06</ele>
        <time>2014-01-25T10:57:36Z</time>
      </trkpt>
      <trkpt lat="44.99826" lon="5.54222">
        <ele>1750.7</ele>
        <time>2014-01-25T10:57:46Z</time>
      </trkpt>
      <trkpt lat="44.99815" lon="5.54237">
        <ele>1746.85</ele>
        <time>2014-01-25T10:57:59Z</time>
      </trkpt>
      <trkpt lat="44.99804" lon="5.54249">
        <ele>1745.89</ele>
        <time>2014-01-25T10:58:16Z</time>
      </trkpt>
      <trkpt lat="44.99788" lon="5.54258">
        <ele>1744.45</ele>
        <time>2014-01-25T10:58:33Z</time>
      </trkpt>
      <trkpt lat="44.99778" lon="5.54257">
        <ele>1746.85</ele>
        <time>2014-01-25T10:58:46Z</time>
      </trkpt>
      <trkpt lat="44.99766" lon="5.54256">
        <ele>1749.74</ele>
        <time>2014-01-25T10:59:02Z</time>
      </trkpt>
      <trkpt lat="44.99758" lon="5.54255">
        <ele>1750.22</ele>
        <time>2014-01-25T10:59:15Z</time>
      </trkpt>
      <trkpt lat="44.99751" lon="5.54254">
        <ele>1752.14</ele>
        <time>2014-01-25T10:59:28Z</time>
      </trkpt>
      <trkpt lat="44.99742" lon="5.54249">
        <ele>1754.06</ele>
        <time>2014-01-25T10:59:42Z</time>
      </trkpt>
      <trkpt lat="44.99734" lon="5.54245">
        <ele>1755.99</ele>
        <time>2014-01-25T10:59:56Z</time>
      </trkpt>
      <trkpt lat="44.99727" lon="5.54239">
        <ele>1756.47</ele>
        <time>2014-01-25T11:00:10Z</time>
      </trkpt>
      <trkpt lat="44.9972" lon="5.54233">
        <ele>1757.43</ele>
        <time>2014-01-25T11:00:24Z</time>
      </trkpt>
      <trkpt lat="44.99713" lon="5.54227">
        <ele>1758.87</ele>
        <time>2014-01-25T11:00:39Z</time>
      </trkpt>
      <trkpt lat="44.99708" lon="5.54224">
        <ele>1759.83</ele>
        <time>2014-01-25T11:00:51Z</time>
      </trkpt>
      <trkpt lat="44.99702" lon="5.54219">
        <ele>1758.87</ele>
        <time>2014-01-25T11:01:10Z</time>
      </trkpt>
      <trkpt lat="44.99692" lon="5.54215">
        <ele>1762.23</ele>
        <time>2014-01-25T11:01:29Z</time>
      </trkpt>
      <trkpt lat="44.99681" lon="5.54211">
        <ele>1765.6</ele>
        <time>2014-01-25T11:01:45Z</time>
      </trkpt>
      <trkpt lat="44.99674" lon="5.54211">
        <ele>1769.44</ele>
        <time>2014-01-25T11:02:02Z</time>
      </trkpt>
      <trkpt lat="44.99664" lon="5.54209">
        <ele>1770.89</ele>
        <time>2014-01-25T11:02:19Z</time>
      </trkpt>
      <trkpt lat="44.99654" lon="5.54204">
        <ele>1772.33</ele>
        <time>2014-01-25T11:02:35Z</time>
      </trkpt>
      <trkpt lat="44.99648" lon="5.54195">
        <ele>1774.25</ele>
        <time>2014-01-25T11:02:53Z</time>
      </trkpt>
      <trkpt lat="44.99647" lon="5.54178">
        <ele>1776.17</ele>
        <time>2014-01-25T11:03:09Z</time>
      </trkpt>
      <trkpt lat="44.99648" lon="5.54162">
        <ele>1778.58</ele>
        <time>2014-01-25T11:03:25Z</time>
      </trkpt>
      <trkpt lat="44.99652" lon="5.5415">
        <ele>1780.98</ele>
        <time>2014-01-25T11:03:42Z</time>
      </trkpt>
      <trkpt lat="44.99652" lon="5.54148">
        <ele>1780.5</ele>
        <time>2014-01-25T11:03:59Z</time>
      </trkpt>
      <trkpt lat="44.99646" lon="5.54155">
        <ele>1780.98</ele>
        <time>2014-01-25T11:04:19Z</time>
      </trkpt>
      <trkpt lat="44.99641" lon="5.54156">
        <ele>1781.46</ele>
        <time>2014-01-25T11:04:38Z</time>
      </trkpt>
      <trkpt lat="44.99626" lon="5.54158">
        <ele>1782.9</ele>
        <time>2014-01-25T11:04:57Z</time>
      </trkpt>
      <trkpt lat="44.99619" lon="5.54158">
        <ele>1786.75</ele>
        <time>2014-01-25T11:05:13Z</time>
      </trkpt>
      <trkpt lat="44.99604" lon="5.54163">
        <ele>1792.03</ele>
        <time>2014-01-25T11:05:35Z</time>
      </trkpt>
      <trkpt lat="44.99595" lon="5.54164">
        <ele>1793.96</ele>
        <time>2014-01-25T11:05:49Z</time>
      </trkpt>
      <trkpt lat="44.99583" lon="5.54165">
        <ele>1795.88</ele>
        <time>2014-01-25T11:06:05Z</time>
      </trkpt>
      <trkpt lat="44.99574" lon="5.54168">
        <ele>1796.84</ele>
        <time>2014-01-25T11:06:23Z</time>
      </trkpt>
      <trkpt lat="44.99565" lon="5.54172">
        <ele>1800.21</ele>
        <time>2014-01-25T11:06:39Z</time>
      </trkpt>
      <trkpt lat="44.99554" lon="5.54175">
        <ele>1804.05</ele>
        <time>2014-01-25T11:06:57Z</time>
      </trkpt>
      <trkpt lat="44.99544" lon="5.54181">
        <ele>1806.45</ele>
        <time>2014-01-25T11:07:16Z</time>
      </trkpt>
      <trkpt lat="44.99533" lon="5.54185">
        <ele>1809.82</ele>
        <time>2014-01-25T11:07:37Z</time>
      </trkpt>
      <trkpt lat="44.99522" lon="5.54192">
        <ele>1811.74</ele>
        <time>2014-01-25T11:07:56Z</time>
      </trkpt>
      <trkpt lat="44.99515" lon="5.54193">
        <ele>1812.7</ele>
        <time>2014-01-25T11:08:13Z</time>
      </trkpt>
      <trkpt lat="44.99513" lon="5.54192">
        <ele>1813.66</ele>
        <time>2014-01-25T11:08:33Z</time>
      </trkpt>
      <trkpt lat="44.9951" lon="5.54199">
        <ele>1812.7</ele>
        <time>2014-01-25T11:08:50Z</time>
      </trkpt>
      <trkpt lat="44.99509" lon="5.542">
        <ele>1807.9</ele>
        <time>2014-01-25T11:09:20Z</time>
      </trkpt>
      <trkpt lat="44.99507" lon="5.54198">
        <ele>1812.22</ele>
        <time>2014-01-25T11:09:37Z</time>
      </trkpt>
      <trkpt lat="44.99499" lon="5.54201">
        <ele>1817.99</ele>
        <time>2014-01-25T11:09:58Z</time>
      </trkpt>
      <trkpt lat="44.99491" lon="5.54209">
        <ele>1821.35</ele>
        <time>2014-01-25T11:10:18Z</time>
      </trkpt>
      <trkpt lat="44.99482" lon="5.5421">
        <ele>1823.76</ele>
        <time>2014-01-25T11:10:32Z</time>
      </trkpt>
      <trkpt lat="44.99474" lon="5.54204">
        <ele>1828.56</ele>
        <time>2014-01-25T11:10:51Z</time>
      </trkpt>
      <trkpt lat="44.99473" lon="5.54192">
        <ele>1831.45</ele>
        <time>2014-01-25T11:11:06Z</time>
      </trkpt>
      <trkpt lat="44.99472" lon="5.54183">
        <ele>1831.45</ele>
        <time>2014-01-25T11:11:21Z</time>
      </trkpt>
      <trkpt lat="44.99471" lon="5.54176">
        <ele>1835.29</ele>
        <time>2014-01-25T11:11:40Z</time>
      </trkpt>
      <trkpt lat="44.99466" lon="5.5418">
        <ele>1840.1</ele>
        <time>2014-01-25T11:11:57Z</time>
      </trkpt>
      <trkpt lat="44.99457" lon="5.54188">
        <ele>1841.06</ele>
        <time>2014-01-25T11:12:22Z</time>
      </trkpt>
      <trkpt lat="44.99449" lon="5.54195">
        <ele>1843.95</ele>
        <time>2014-01-25T11:12:40Z</time>
      </trkpt>
      <trkpt lat="44.99443" lon="5.542">
        <ele>1844.91</ele>
        <time>2014-01-25T11:12:57Z</time>
      </trkpt>
      <trkpt lat="44.99436" lon="5.54207">
        <ele>1844.91</ele>
        <time>2014-01-25T11:13:18Z</time>
      </trkpt>
      <trkpt lat="44.9943" lon="5.54217">
        <ele>1847.31</ele>
        <time>2014-01-25T11:13:35Z</time>
      </trkpt>
      <trkpt lat="44.99425" lon="5.54225">
        <ele>1849.71</ele>
        <time>2014-01-25T11:13:50Z</time>
      </trkpt>
      <trkpt lat="44.99419" lon="5.54232">
        <ele>1853.56</ele>
        <time>2014-01-25T11:14:06Z</time>
      </trkpt>
      <trkpt lat="44.99412" lon="5.54242">
        <ele>1859.33</ele>
        <time>2014-01-25T11:14:26Z</time>
      </trkpt>
      <trkpt lat="44.99406" lon="5.54248">
        <ele>1863.17</ele>
        <time>2014-01-25T11:14:42Z</time>
      </trkpt>
      <trkpt lat="44.99403" lon="5.54259">
        <ele>1865.58</ele>
        <time>2014-01-25T11:15:00Z</time>
      </trkpt>
      <trkpt lat="44.994" lon="5.5426">
        <ele>1866.54</ele>
        <time>2014-01-25T11:15:23Z</time>
      </trkpt>
      <trkpt lat="44.99395" lon="5.54257">
        <ele>1868.94</ele>
        <time>2014-01-25T11:15:43Z</time>
      </trkpt>
      <trkpt lat="44.99392" lon="5.54248">
        <ele>1871.34</ele>
        <time>2014-01-25T11:15:56Z</time>
      </trkpt>
      <trkpt lat="44.99388" lon="5.54252">
        <ele>1873.27</ele>
        <time>2014-01-25T11:16:12Z</time>
      </trkpt>
      <trkpt lat="44.99382" lon="5.54262">
        <ele>1877.11</ele>
        <time>2014-01-25T11:16:32Z</time>
      </trkpt>
      <trkpt lat="44.99379" lon="5.54272">
        <ele>1879.03</ele>
        <time>2014-01-25T11:16:48Z</time>
      </trkpt>
      <trkpt lat="44.9937" lon="5.54271">
        <ele>1879.51</ele>
        <time>2014-01-25T11:17:02Z</time>
      </trkpt>
      <trkpt lat="44.99362" lon="5.54266">
        <ele>1880.96</ele>
        <time>2014-01-25T11:17:16Z</time>
      </trkpt>
      <trkpt lat="44.99355" lon="5.54257">
        <ele>1885.28</ele>
        <time>2014-01-25T11:17:35Z</time>
      </trkpt>
      <trkpt lat="44.9935" lon="5.54257">
        <ele>1888.17</ele>
        <time>2014-01-25T11:17:50Z</time>
      </trkpt>
      <trkpt lat="44.99348" lon="5.54257">
        <ele>1889.13</ele>
        <time>2014-01-25T11:18:12Z</time>
      </trkpt>
      <trkpt lat="44.99348" lon="5.54258">
        <ele>1888.65</ele>
        <time>2014-01-25T11:18:37Z</time>
      </trkpt>
      <trkpt lat="44.99343" lon="5.54259">
        <ele>1889.61</ele>
        <time>2014-01-25T11:19:01Z</time>
      </trkpt>
      <trkpt lat="44.99337" lon="5.54257">
        <ele>1891.53</ele>
        <time>2014-01-25T11:19:17Z</time>
      </trkpt>
      <trkpt lat="44.9933" lon="5.54248">
        <ele>1895.86</ele>
        <time>2014-01-25T11:19:33Z</time>
      </trkpt>
      <trkpt lat="44.99327" lon="5.54235">
        <ele>1899.22</ele>
        <time>2014-01-25T11:19:51Z</time>
      </trkpt>
      <trkpt lat="44.99324" lon="5.54226">
        <ele>1901.63</ele>
        <time>2014-01-25T11:20:06Z</time>
      </trkpt>
      <trkpt lat="44.99318" lon="5.5423">
        <ele>1900.66</ele>
        <time>2014-01-25T11:20:20Z</time>
      </trkpt>
      <trkpt lat="44.99309" lon="5.54229">
        <ele>1904.03</ele>
        <time>2014-01-25T11:20:42Z</time>
      </trkpt>
      <trkpt lat="44.99311" lon="5.54227">
        <ele>1906.91</ele>
        <time>2014-01-25T11:21:12Z</time>
      </trkpt>
      <trkpt lat="44.9931" lon="5.54227">
        <ele>1911.24</ele>
        <time>2014-01-25T11:21:37Z</time>
      </trkpt>
      <trkpt lat="44.99307" lon="5.54227">
        <ele>1908.35</ele>
        <time>2014-01-25T11:21:58Z</time>
      </trkpt>
      <trkpt lat="44.99304" lon="5.5422">
        <ele>1907.39</ele>
        <time>2014-01-25T11:22:13Z</time>
      </trkpt>
      <trkpt lat="44.99302" lon="5.54214">
        <ele>1909.8</ele>
        <time>2014-01-25T11:22:27Z</time>
      </trkpt>
      <trkpt lat="44.99302" lon="5.54216">
        <ele>1910.28</ele>
        <time>2014-01-25T11:22:46Z</time>
      </trkpt>
      <trkpt lat="44.99297" lon="5.54216">
        <ele>1909.32</ele>
        <time>2014-01-25T11:23:09Z</time>
      </trkpt>
      <trkpt lat="44.99291" lon="5.5421">
        <ele>1911.72</ele>
        <time>2014-01-25T11:23:25Z</time>
      </trkpt>
      <trkpt lat="44.99289" lon="5.54195">
        <ele>1917.97</ele>
        <time>2014-01-25T11:23:43Z</time>
      </trkpt>
      <trkpt lat="44.99283" lon="5.54185">
        <ele>1917.01</ele>
        <time>2014-01-25T11:23:59Z</time>
      </trkpt>
      <trkpt lat="44.99276" lon="5.5418">
        <ele>1922.29</ele>
        <time>2014-01-25T11:24:16Z</time>
      </trkpt>
      <trkpt lat="44.9927" lon="5.54168">
        <ele>1925.18</ele>
        <time>2014-01-25T11:24:36Z</time>
      </trkpt>
      <trkpt lat="44.99266" lon="5.54155">
        <ele>1928.06</ele>
        <time>2014-01-25T11:24:57Z</time>
      </trkpt>
      <trkpt lat="44.99266" lon="5.54144">
        <ele>1932.87</ele>
        <time>2014-01-25T11:25:15Z</time>
      </trkpt>
      <trkpt lat="44.99269" lon="5.54136">
        <ele>1934.31</ele>
        <time>2014-01-25T11:25:32Z</time>
      </trkpt>
      <trkpt lat="44.99273" lon="5.54129">
        <ele>1935.27</ele>
        <time>2014-01-25T11:25:49Z</time>
      </trkpt>
      <trkpt lat="44.99274" lon="5.54126">
        <ele>1935.75</ele>
        <time>2014-01-25T11:26:04Z</time>
      </trkpt>
      <trkpt lat="44.9927" lon="5.54125">
        <ele>1937.19</ele>
        <time>2014-01-25T11:26:12Z</time>
      </trkpt>
      <trkpt lat="44.99261" lon="5.54122">
        <ele>1939.12</ele>
        <time>2014-01-25T11:26:27Z</time>
      </trkpt>
      <trkpt lat="44.99256" lon="5.54118">
        <ele>1942.48</ele>
        <time>2014-01-25T11:26:47Z</time>
      </trkpt>
      <trkpt lat="44.99257" lon="5.54103">
        <ele>1946.81</ele>
        <time>2014-01-25T11:27:08Z</time>
      </trkpt>
      <trkpt lat="44.99253" lon="5.54092">
        <ele>1950.17</ele>
        <time>2014-01-25T11:27:23Z</time>
      </trkpt>
      <trkpt lat="44.99247" lon="5.54083">
        <ele>1953.06</ele>
        <time>2014-01-25T11:27:37Z</time>
      </trkpt>
      <trkpt lat="44.99242" lon="5.54073">
        <ele>1953.54</ele>
        <time>2014-01-25T11:27:54Z</time>
      </trkpt>
      <trkpt lat="44.99237" lon="5.54074">
        <ele>1954.5</ele>
        <time>2014-01-25T11:28:08Z</time>
      </trkpt>
      <trkpt lat="44.99232" lon="5.54073">
        <ele>1955.94</ele>
        <time>2014-01-25T11:28:24Z</time>
      </trkpt>
      <trkpt lat="44.99233" lon="5.54061">
        <ele>1956.9</ele>
        <time>2014-01-25T11:28:41Z</time>
      </trkpt>
      <trkpt lat="44.99227" lon="5.54062">
        <ele>1958.82</ele>
        <time>2014-01-25T11:28:53Z</time>
      </trkpt>
      <trkpt lat="44.9922" lon="5.54059">
        <ele>1963.15</ele>
        <time>2014-01-25T11:29:08Z</time>
      </trkpt>
      <trkpt lat="44.99216" lon="5.54056">
        <ele>1966.03</ele>
        <time>2014-01-25T11:29:22Z</time>
      </trkpt>
      <trkpt lat="44.99211" lon="5.54052">
        <ele>1968.44</ele>
        <time>2014-01-25T11:29:37Z</time>
      </trkpt>
      <trkpt lat="44.99205" lon="5.54047">
        <ele>1971.32</ele>
        <time>2014-01-25T11:29:54Z</time>
      </trkpt>
      <trkpt lat="44.99198" lon="5.54043">
        <ele>1974.69</ele>
        <time>2014-01-25T11:30:11Z</time>
      </trkpt>
      <trkpt lat="44.99193" lon="5.54038">
        <ele>1976.61</ele>
        <time>2014-01-25T11:30:26Z</time>
      </trkpt>
      <trkpt lat="44.99192" lon="5.54035">
        <ele>1978.53</ele>
        <time>2014-01-25T11:30:42Z</time>
      </trkpt>
      <trkpt lat="44.99195" lon="5.54029">
        <ele>1979.01</ele>
        <time>2014-01-25T11:30:58Z</time>
      </trkpt>
      <trkpt lat="44.992" lon="5.54023">
        <ele>1980.93</ele>
        <time>2014-01-25T11:31:15Z</time>
      </trkpt>
      <trkpt lat="44.99204" lon="5.54016">
        <ele>1982.38</ele>
        <time>2014-01-25T11:31:31Z</time>
      </trkpt>
      <trkpt lat="44.99207" lon="5.54011">
        <ele>1983.82</ele>
        <time>2014-01-25T11:31:46Z</time>
      </trkpt>
      <trkpt lat="44.99203" lon="5.54009">
        <ele>1983.82</ele>
        <time>2014-01-25T11:32:00Z</time>
      </trkpt>
      <trkpt lat="44.99198" lon="5.54004">
        <ele>1985.26</ele>
        <time>2014-01-25T11:32:17Z</time>
      </trkpt>
      <trkpt lat="44.99198" lon="5.53997">
        <ele>1987.18</ele>
        <time>2014-01-25T11:32:32Z</time>
      </trkpt>
      <trkpt lat="44.99202" lon="5.53998">
        <ele>1989.59</ele>
        <time>2014-01-25T11:32:51Z</time>
      </trkpt>
      <trkpt lat="44.99206" lon="5.5399">
        <ele>1991.03</ele>
        <time>2014-01-25T11:33:03Z</time>
      </trkpt>
      <trkpt lat="44.99209" lon="5.53984">
        <ele>1991.99</ele>
        <time>2014-01-25T11:33:20Z</time>
      </trkpt>
      <trkpt lat="44.99203" lon="5.5398">
        <ele>1993.43</ele>
        <time>2014-01-25T11:33:36Z</time>
      </trkpt>
      <trkpt lat="44.99201" lon="5.53972">
        <ele>1996.32</ele>
        <time>2014-01-25T11:33:51Z</time>
      </trkpt>
      <trkpt lat="44.99198" lon="5.53963">
        <ele>1998.24</ele>
        <time>2014-01-25T11:34:06Z</time>
      </trkpt>
      <trkpt lat="44.99202" lon="5.53954">
        <ele>1999.68</ele>
        <time>2014-01-25T11:34:23Z</time>
      </trkpt>
      <trkpt lat="44.99208" lon="5.53949">
        <ele>2002.56</ele>
        <time>2014-01-25T11:34:39Z</time>
      </trkpt>
      <trkpt lat="44.99215" lon="5.53943">
        <ele>2004.97</ele>
        <time>2014-01-25T11:34:57Z</time>
      </trkpt>
      <trkpt lat="44.99223" lon="5.53936">
        <ele>2006.89</ele>
        <time>2014-01-25T11:35:17Z</time>
      </trkpt>
      <trkpt lat="44.99231" lon="5.53931">
        <ele>2008.33</ele>
        <time>2014-01-25T11:35:36Z</time>
      </trkpt>
      <trkpt lat="44.99238" lon="5.53923">
        <ele>2011.22</ele>
        <time>2014-01-25T11:35:53Z</time>
      </trkpt>
      <trkpt lat="44.99242" lon="5.5392">
        <ele>2012.66</ele>
        <time>2014-01-25T11:36:11Z</time>
      </trkpt>
      <trkpt lat="44.99245" lon="5.53919">
        <ele>2013.62</ele>
        <time>2014-01-25T11:36:32Z</time>
      </trkpt>
      <trkpt lat="44.99253" lon="5.53912">
        <ele>2018.91</ele>
        <time>2014-01-25T11:36:50Z</time>
      </trkpt>
      <trkpt lat="44.99255" lon="5.53904">
        <ele>2023.23</ele>
        <time>2014-01-25T11:37:06Z</time>
      </trkpt>
      <trkpt lat="44.99249" lon="5.53893">
        <ele>2026.6</ele>
        <time>2014-01-25T11:37:27Z</time>
      </trkpt>
      <trkpt lat="44.99248" lon="5.53881">
        <ele>2027.56</ele>
        <time>2014-01-25T11:37:42Z</time>
      </trkpt>
      <trkpt lat="44.99248" lon="5.53881">
        <ele>2027.56</ele>
        <time>2014-01-25T11:37:59Z</time>
      </trkpt>
      <trkpt lat="44.99253" lon="5.53877">
        <ele>2027.56</ele>
        <time>2014-01-25T11:38:11Z</time>
      </trkpt>
      <trkpt lat="44.99258" lon="5.53876">
        <ele>2028.04</ele>
        <time>2014-01-25T11:38:29Z</time>
      </trkpt>
      <trkpt lat="44.99267" lon="5.53874">
        <ele>2030.92</ele>
        <time>2014-01-25T11:38:48Z</time>
      </trkpt>
      <trkpt lat="44.99278" lon="5.53868">
        <ele>2030.92</ele>
        <time>2014-01-25T11:39:05Z</time>
      </trkpt>
      <trkpt lat="44.99288" lon="5.53864">
        <ele>2032.36</ele>
        <time>2014-01-25T11:39:21Z</time>
      </trkpt>
      <trkpt lat="44.99299" lon="5.53864">
        <ele>2032.36</ele>
        <time>2014-01-25T11:39:40Z</time>
      </trkpt>
      <trkpt lat="44.99302" lon="5.53861">
        <ele>2034.77</ele>
        <time>2014-01-25T11:39:59Z</time>
      </trkpt>
      <trkpt lat="44.99302" lon="5.53861">
        <ele>2036.69</ele>
        <time>2014-01-25T11:40:23Z</time>
      </trkpt>
      <trkpt lat="44.99301" lon="5.5386">
        <ele>2037.65</ele>
        <time>2014-01-25T11:40:47Z</time>
      </trkpt>
      <trkpt lat="44.99303" lon="5.5386">
        <ele>2036.21</ele>
        <time>2014-01-25T11:41:16Z</time>
      </trkpt>
      <trkpt lat="44.99302" lon="5.53859">
        <ele>2036.69</ele>
        <time>2014-01-25T11:41:37Z</time>
      </trkpt>
      <trkpt lat="44.99302" lon="5.5386">
        <ele>2036.69</ele>
        <time>2014-01-25T11:42:03Z</time>
      </trkpt>
      <trkpt lat="44.99301" lon="5.5386">
        <ele>2036.69</ele>
        <time>2014-01-25T11:42:30Z</time>
      </trkpt>
      <trkpt lat="44.99304" lon="5.53861">
        <ele>2035.25</ele>
        <time>2014-01-25T11:42:55Z</time>
      </trkpt>
      <trkpt lat="44.99303" lon="5.53861">
        <ele>2036.69</ele>
        <time>2014-01-25T11:43:17Z</time>
      </trkpt>
      <trkpt lat="44.99303" lon="5.53862">
        <ele>2036.69</ele>
        <time>2014-01-25T11:43:45Z</time>
      </trkpt>
      <trkpt lat="44.99304" lon="5.53859">
        <ele>2038.13</ele>
        <time>2014-01-25T11:44:12Z</time>
      </trkpt>
      <trkpt lat="44.99302" lon="5.5386">
        <ele>2037.17</ele>
        <time>2014-01-25T11:44:35Z</time>
      </trkpt>
      <trkpt lat="44.99301" lon="5.53859">
        <ele>2037.65</ele>
        <time>2014-01-25T11:45:03Z</time>
      </trkpt>
      <trkpt lat="44.99302" lon="5.5386">
        <ele>2037.65</ele>
        <time>2014-01-25T11:45:22Z</time>
      </trkpt>
      <trkpt lat="44.99302" lon="5.53861">
        <ele>2036.21</ele>
        <time>2014-01-25T11:45:48Z</time>
      </trkpt>
      <trkpt lat="44.99302" lon="5.5386">
        <ele>2034.29</ele>
        <time>2014-01-25T11:46:07Z</time>
      </trkpt>
      <trkpt lat="44.99305" lon="5.53861">
        <ele>2034.77</ele>
        <time>2014-01-25T11:46:32Z</time>
      </trkpt>
      <trkpt lat="44.99307" lon="5.53863">
        <ele>2031.4</ele>
        <time>2014-01-25T11:46:45Z</time>
      </trkpt>
      <trkpt lat="44.99307" lon="5.53865">
        <ele>2031.88</ele>
        <time>2014-01-25T11:47:09Z</time>
      </trkpt>
      <trkpt lat="44.99304" lon="5.53864">
        <ele>2031.88</ele>
        <time>2014-01-25T11:47:31Z</time>
      </trkpt>
      <trkpt lat="44.99305" lon="5.53866">
        <ele>2030.44</ele>
        <time>2014-01-25T11:48:02Z</time>
      </trkpt>
      <trkpt lat="44.99304" lon="5.53868">
        <ele>2031.4</ele>
        <time>2014-01-25T11:48:31Z</time>
      </trkpt>
      <trkpt lat="44.99303" lon="5.53864">
        <ele>2033.33</ele>
        <time>2014-01-25T11:48:58Z</time>
      </trkpt>
      <trkpt lat="44.99303" lon="5.53867">
        <ele>2032.84</ele>
        <time>2014-01-25T11:49:26Z</time>
      </trkpt>
      <trkpt lat="44.99292" lon="5.53865">
        <ele>2030.92</ele>
        <time>2014-01-25T11:49:39Z</time>
      </trkpt>
      <trkpt lat="44.99291" lon="5.53865">
        <ele>2030.92</ele>
        <time>2014-01-25T11:49:40Z</time>
      </trkpt>
      <trkpt lat="44.99281" lon="5.53867">
        <ele>2030.92</ele>
        <time>2014-01-25T11:49:46Z</time>
      </trkpt>
      <trkpt lat="44.99266" lon="5.53876">
        <ele>2029.96</ele>
        <time>2014-01-25T11:49:59Z</time>
      </trkpt>
      <trkpt lat="44.9925" lon="5.53884">
        <ele>2024.67</ele>
        <time>2014-01-25T11:50:06Z</time>
      </trkpt>
      <trkpt lat="44.99252" lon="5.53885">
        <ele>2023.71</ele>
        <time>2014-01-25T11:50:20Z</time>
      </trkpt>
      <trkpt lat="44.99255" lon="5.53894">
        <ele>2022.27</ele>
        <time>2014-01-25T11:50:28Z</time>
      </trkpt>
      <trkpt lat="44.9925" lon="5.53914">
        <ele>2014.58</ele>
        <time>2014-01-25T11:50:35Z</time>
      </trkpt>
      <trkpt lat="44.99251" lon="5.53911">
        <ele>2013.62</ele>
        <time>2014-01-25T11:50:55Z</time>
      </trkpt>
      <trkpt lat="44.99251" lon="5.53912">
        <ele>2014.58</ele>
        <time>2014-01-25T11:51:13Z</time>
      </trkpt>
      <trkpt lat="44.99252" lon="5.53914">
        <ele>2014.58</ele>
        <time>2014-01-25T11:51:30Z</time>
      </trkpt>
      <trkpt lat="44.99243" lon="5.53923">
        <ele>2011.7</ele>
        <time>2014-01-25T11:51:34Z</time>
      </trkpt>
      <trkpt lat="44.99227" lon="5.53934">
        <ele>2007.37</ele>
        <time>2014-01-25T11:51:39Z</time>
      </trkpt>
      <trkpt lat="44.99219" lon="5.53937">
        <ele>2004.97</ele>
        <time>2014-01-25T11:51:49Z</time>
      </trkpt>
      <trkpt lat="44.99219" lon="5.53938">
        <ele>2004.49</ele>
        <time>2014-01-25T11:51:53Z</time>
      </trkpt>
      <trkpt lat="44.99207" lon="5.53941">
        <ele>2003.52</ele>
        <time>2014-01-25T11:52:02Z</time>
      </trkpt>
      <trkpt lat="44.99206" lon="5.53941">
        <ele>2003.04</ele>
        <time>2014-01-25T11:52:03Z</time>
      </trkpt>
      <trkpt lat="44.99207" lon="5.5395">
        <ele>2001.12</ele>
        <time>2014-01-25T11:52:09Z</time>
      </trkpt>
      <trkpt lat="44.99211" lon="5.53954">
        <ele>2000.64</ele>
        <time>2014-01-25T11:52:11Z</time>
      </trkpt>
      <trkpt lat="44.99206" lon="5.53961">
        <ele>1998.72</ele>
        <time>2014-01-25T11:52:15Z</time>
      </trkpt>
      <trkpt lat="44.99196" lon="5.53964">
        <ele>1997.28</ele>
        <time>2014-01-25T11:52:20Z</time>
      </trkpt>
      <trkpt lat="44.99196" lon="5.53983">
        <ele>1993.91</ele>
        <time>2014-01-25T11:52:27Z</time>
      </trkpt>
      <trkpt lat="44.99195" lon="5.53988">
        <ele>1991.51</ele>
        <time>2014-01-25T11:52:29Z</time>
      </trkpt>
      <trkpt lat="44.99193" lon="5.53992">
        <ele>1987.66</ele>
        <time>2014-01-25T11:52:41Z</time>
      </trkpt>
      <trkpt lat="44.99194" lon="5.53994">
        <ele>1987.18</ele>
        <time>2014-01-25T11:52:47Z</time>
      </trkpt>
      <trkpt lat="44.99201" lon="5.54001">
        <ele>1984.78</ele>
        <time>2014-01-25T11:52:55Z</time>
      </trkpt>
      <trkpt lat="44.99198" lon="5.5402">
        <ele>1980.45</ele>
        <time>2014-01-25T11:53:02Z</time>
      </trkpt>
      <trkpt lat="44.99192" lon="5.54038">
        <ele>1973.24</ele>
        <time>2014-01-25T11:53:10Z</time>
      </trkpt>
      <trkpt lat="44.99197" lon="5.54039">
        <ele>1970.84</ele>
        <time>2014-01-25T11:53:23Z</time>
      </trkpt>
      <trkpt lat="44.992" lon="5.54045">
        <ele>1969.4</ele>
        <time>2014-01-25T11:53:31Z</time>
      </trkpt>
      <trkpt lat="44.99201" lon="5.54045">
        <ele>1969.88</ele>
        <time>2014-01-25T11:53:36Z</time>
      </trkpt>
      <trkpt lat="44.99207" lon="5.54056">
        <ele>1968.92</ele>
        <time>2014-01-25T11:53:40Z</time>
      </trkpt>
      <trkpt lat="44.99209" lon="5.54065">
        <ele>1968.44</ele>
        <time>2014-01-25T11:53:55Z</time>
      </trkpt>
      <trkpt lat="44.9921" lon="5.54065">
        <ele>1968.44</ele>
        <time>2014-01-25T11:54:21Z</time>
      </trkpt>
      <trkpt lat="44.99209" lon="5.54065">
        <ele>1967.96</ele>
        <time>2014-01-25T11:54:44Z</time>
      </trkpt>
      <trkpt lat="44.9921" lon="5.54065">
        <ele>1967.96</ele>
        <time>2014-01-25T11:55:07Z</time>
      </trkpt>
      <trkpt lat="44.99209" lon="5.54064">
        <ele>1968.92</ele>
        <time>2014-01-25T11:55:35Z</time>
      </trkpt>
      <trkpt lat="44.99213" lon="5.54074">
        <ele>1968.92</ele>
        <time>2014-01-25T11:55:51Z</time>
      </trkpt>
      <trkpt lat="44.99224" lon="5.54097">
        <ele>1963.15</ele>
        <time>2014-01-25T11:55:58Z</time>
      </trkpt>
      <trkpt lat="44.99241" lon="5.54106">
        <ele>1955.94</ele>
        <time>2014-01-25T11:56:04Z</time>
      </trkpt>
      <trkpt lat="44.99243" lon="5.54123">
        <ele>1949.21</ele>
        <time>2014-01-25T11:56:10Z</time>
      </trkpt>
      <trkpt lat="44.99256" lon="5.54143">
        <ele>1942.96</ele>
        <time>2014-01-25T11:56:16Z</time>
      </trkpt>
      <trkpt lat="44.99273" lon="5.54155">
        <ele>1934.79</ele>
        <time>2014-01-25T11:56:21Z</time>
      </trkpt>
      <trkpt lat="44.99279" lon="5.54179">
        <ele>1926.62</ele>
        <time>2014-01-25T11:56:27Z</time>
      </trkpt>
      <trkpt lat="44.99297" lon="5.54184">
        <ele>1918.93</ele>
        <time>2014-01-25T11:56:33Z</time>
      </trkpt>
      <trkpt lat="44.99297" lon="5.54189">
        <ele>1915.08</ele>
        <time>2014-01-25T11:56:38Z</time>
      </trkpt>
      <trkpt lat="44.99295" lon="5.54191">
        <ele>1913.16</ele>
        <time>2014-01-25T11:56:46Z</time>
      </trkpt>
      <trkpt lat="44.99294" lon="5.54203">
        <ele>1912.68</ele>
        <time>2014-01-25T11:56:53Z</time>
      </trkpt>
      <trkpt lat="44.99302" lon="5.54212">
        <ele>1909.32</ele>
        <time>2014-01-25T11:56:59Z</time>
      </trkpt>
      <trkpt lat="44.99305" lon="5.54216">
        <ele>1906.43</ele>
        <time>2014-01-25T11:57:04Z</time>
      </trkpt>
      <trkpt lat="44.99314" lon="5.54231">
        <ele>1902.59</ele>
        <time>2014-01-25T11:57:11Z</time>
      </trkpt>
      <trkpt lat="44.99328" lon="5.54227">
        <ele>1898.74</ele>
        <time>2014-01-25T11:57:17Z</time>
      </trkpt>
      <trkpt lat="44.99327" lon="5.54233">
        <ele>1896.82</ele>
        <time>2014-01-25T11:57:24Z</time>
      </trkpt>
      <trkpt lat="44.99327" lon="5.54232">
        <ele>1896.82</ele>
        <time>2014-01-25T11:57:42Z</time>
      </trkpt>
      <trkpt lat="44.99328" lon="5.54232">
        <ele>1895.86</ele>
        <time>2014-01-25T11:57:58Z</time>
      </trkpt>
      <trkpt lat="44.99351" lon="5.54245">
        <ele>1887.21</ele>
        <time>2014-01-25T11:58:05Z</time>
      </trkpt>
      <trkpt lat="44.99367" lon="5.54248">
        <ele>1881.44</ele>
        <time>2014-01-25T11:58:09Z</time>
      </trkpt>
      <trkpt lat="44.99382" lon="5.54259">
        <ele>1871.82</ele>
        <time>2014-01-25T11:58:16Z</time>
      </trkpt>
      <trkpt lat="44.99393" lon="5.54254">
        <ele>1866.06</ele>
        <time>2014-01-25T11:58:22Z</time>
      </trkpt>
      <trkpt lat="44.99392" lon="5.54256">
        <ele>1860.77</ele>
        <time>2014-01-25T11:58:28Z</time>
      </trkpt>
      <trkpt lat="44.99392" lon="5.54257">
        <ele>1861.25</ele>
        <time>2014-01-25T11:58:42Z</time>
      </trkpt>
      <trkpt lat="44.99396" lon="5.54261">
        <ele>1864.61</ele>
        <time>2014-01-25T11:58:56Z</time>
      </trkpt>
      <trkpt lat="44.99396" lon="5.54261">
        <ele>1864.61</ele>
        <time>2014-01-25T11:59:01Z</time>
      </trkpt>
      <trkpt lat="44.99411" lon="5.54245">
        <ele>1861.73</ele>
        <time>2014-01-25T11:59:07Z</time>
      </trkpt>
      <trkpt lat="44.99425" lon="5.5425">
        <ele>1856.44</ele>
        <time>2014-01-25T11:59:12Z</time>
      </trkpt>
      <trkpt lat="44.99425" lon="5.5425">
        <ele>1856.44</ele>
        <time>2014-01-25T11:59:27Z</time>
      </trkpt>
      <trkpt lat="44.99439" lon="5.54245">
        <ele>1853.08</ele>
        <time>2014-01-25T11:59:33Z</time>
      </trkpt>
      <trkpt lat="44.99455" lon="5.54238">
        <ele>1847.31</ele>
        <time>2014-01-25T11:59:38Z</time>
      </trkpt>
      <trkpt lat="44.9946" lon="5.54248">
        <ele>1842.02</ele>
        <time>2014-01-25T11:59:45Z</time>
      </trkpt>
      <trkpt lat="44.9946" lon="5.54246">
        <ele>1842.02</ele>
        <time>2014-01-25T11:59:50Z</time>
      </trkpt>
      <trkpt lat="44.99483" lon="5.54235">
        <ele>1836.74</ele>
        <time>2014-01-25T11:59:56Z</time>
      </trkpt>
      <trkpt lat="44.99503" lon="5.5423">
        <ele>1829.05</ele>
        <time>2014-01-25T12:00:01Z</time>
      </trkpt>
      <trkpt lat="44.9953" lon="5.54212">
        <ele>1819.43</ele>
        <time>2014-01-25T12:00:07Z</time>
      </trkpt>
      <trkpt lat="44.99553" lon="5.54215">
        <ele>1811.74</ele>
        <time>2014-01-25T12:00:12Z</time>
      </trkpt>
      <trkpt lat="44.99552" lon="5.54212">
        <ele>1806.94</ele>
        <time>2014-01-25T12:00:18Z</time>
      </trkpt>
      <trkpt lat="44.9955" lon="5.54209">
        <ele>1806.94</ele>
        <time>2014-01-25T12:00:42Z</time>
      </trkpt>
      <trkpt lat="44.99547" lon="5.54208">
        <ele>1806.94</ele>
        <time>2014-01-25T12:01:03Z</time>
      </trkpt>
      <trkpt lat="44.99548" lon="5.54208">
        <ele>1807.9</ele>
        <time>2014-01-25T12:01:24Z</time>
      </trkpt>
      <trkpt lat="44.9955" lon="5.54207">
        <ele>1809.82</ele>
        <time>2014-01-25T12:01:45Z</time>
      </trkpt>
      <trkpt lat="44.99556" lon="5.54199">
        <ele>1808.38</ele>
        <time>2014-01-25T12:01:58Z</time>
      </trkpt>
      <trkpt lat="44.99578" lon="5.54165">
        <ele>1804.05</ele>
        <time>2014-01-25T12:02:08Z</time>
      </trkpt>
      <trkpt lat="44.99602" lon="5.54173">
        <ele>1800.21</ele>
        <time>2014-01-25T12:02:15Z</time>
      </trkpt>
      <trkpt lat="44.99615" lon="5.54176">
        <ele>1796.36</ele>
        <time>2014-01-25T12:02:20Z</time>
      </trkpt>
      <trkpt lat="44.99621" lon="5.5417">
        <ele>1793.48</ele>
        <time>2014-01-25T12:02:30Z</time>
      </trkpt>
      <trkpt lat="44.99622" lon="5.5417">
        <ele>1792.52</ele>
        <time>2014-01-25T12:02:43Z</time>
      </trkpt>
      <trkpt lat="44.99645" lon="5.5418">
        <ele>1788.67</ele>
        <time>2014-01-25T12:02:50Z</time>
      </trkpt>
      <trkpt lat="44.9967" lon="5.54194">
        <ele>1782.9</ele>
        <time>2014-01-25T12:02:56Z</time>
      </trkpt>
      <trkpt lat="44.9967" lon="5.54195">
        <ele>1779.54</ele>
        <time>2014-01-25T12:03:04Z</time>
      </trkpt>
      <trkpt lat="44.9967" lon="5.54195">
        <ele>1777.61</ele>
        <time>2014-01-25T12:03:36Z</time>
      </trkpt>
      <trkpt lat="44.99678" lon="5.54193">
        <ele>1776.17</ele>
        <time>2014-01-25T12:03:57Z</time>
      </trkpt>
      <trkpt lat="44.99683" lon="5.54192">
        <ele>1775.69</ele>
        <time>2014-01-25T12:03:59Z</time>
      </trkpt>
      <trkpt lat="44.99706" lon="5.54209">
        <ele>1770.41</ele>
        <time>2014-01-25T12:04:07Z</time>
      </trkpt>
      <trkpt lat="44.99724" lon="5.54228">
        <ele>1765.6</ele>
        <time>2014-01-25T12:04:13Z</time>
      </trkpt>
      <trkpt lat="44.99737" lon="5.54248">
        <ele>1761.27</ele>
        <time>2014-01-25T12:04:18Z</time>
      </trkpt>
      <trkpt lat="44.99761" lon="5.54256">
        <ele>1755.99</ele>
        <time>2014-01-25T12:04:25Z</time>
      </trkpt>
      <trkpt lat="44.99795" lon="5.54254">
        <ele>1751.18</ele>
        <time>2014-01-25T12:04:39Z</time>
      </trkpt>
      <trkpt lat="44.99799" lon="5.54246">
        <ele>1752.14</ele>
        <time>2014-01-25T12:04:52Z</time>
      </trkpt>
      <trkpt lat="44.99804" lon="5.54254">
        <ele>1751.18</ele>
        <time>2014-01-25T12:05:07Z</time>
      </trkpt>
      <trkpt lat="44.99807" lon="5.54262">
        <ele>1751.66</ele>
        <time>2014-01-25T12:05:23Z</time>
      </trkpt>
      <trkpt lat="44.99808" lon="5.54258">
        <ele>1753.1</ele>
        <time>2014-01-25T12:05:40Z</time>
      </trkpt>
      <trkpt lat="44.99809" lon="5.54258">
        <ele>1755.99</ele>
        <time>2014-01-25T12:06:03Z</time>
      </trkpt>
      <trkpt lat="44.99806" lon="5.5426">
        <ele>1756.47</ele>
        <time>2014-01-25T12:06:27Z</time>
      </trkpt>
      <trkpt lat="44.99805" lon="5.5426">
        <ele>1756.95</ele>
        <time>2014-01-25T12:06:49Z</time>
      </trkpt>
      <trkpt lat="44.99803" lon="5.54259">
        <ele>1757.43</ele>
        <time>2014-01-25T12:07:11Z</time>
      </trkpt>
      <trkpt lat="44.99806" lon="5.5426">
        <ele>1758.87</ele>
        <time>2014-01-25T12:07:38Z</time>
      </trkpt>
      <trkpt lat="44.99803" lon="5.54257">
        <ele>1757.43</ele>
        <time>2014-01-25T12:08:02Z</time>
      </trkpt>
      <trkpt lat="44.99804" lon="5.54259">
        <ele>1758.39</ele>
        <time>2014-01-25T12:08:24Z</time>
      </trkpt>
      <trkpt lat="44.99804" lon="5.54256">
        <ele>1759.35</ele>
        <time>2014-01-25T12:08:45Z</time>
      </trkpt>
      <trkpt lat="44.99803" lon="5.54257">
        <ele>1759.35</ele>
        <time>2014-01-25T12:09:06Z</time>
      </trkpt>
      <trkpt lat="44.99803" lon="5.54261">
        <ele>1757.91</ele>
        <time>2014-01-25T12:09:30Z</time>
      </trkpt>
      <trkpt lat="44.99806" lon="5.54253">
        <ele>1761.27</ele>
        <time>2014-01-25T12:10:06Z</time>
      </trkpt>
      <trkpt lat="44.99808" lon="5.5425">
        <ele>1762.71</ele>
        <time>2014-01-25T12:10:32Z</time>
      </trkpt>
      <trkpt lat="44.99809" lon="5.54249">
        <ele>1762.23</ele>
        <time>2014-01-25T12:10:54Z</time>
      </trkpt>
      <trkpt lat="44.99809" lon="5.54252">
        <ele>1760.79</ele>
        <time>2014-01-25T12:11:26Z</time>
      </trkpt>
      <trkpt lat="44.99807" lon="5.54253">
        <ele>1759.35</ele>
        <time>2014-01-25T12:11:53Z</time>
      </trkpt>
      <trkpt lat="44.99808" lon="5.5425">
        <ele>1759.83</ele>
        <time>2014-01-25T12:12:15Z</time>
      </trkpt>
      <trkpt lat="44.99804" lon="5.54257">
        <ele>1757.91</ele>
        <time>2014-01-25T12:12:43Z</time>
      </trkpt>
      <trkpt lat="44.99806" lon="5.54259">
        <ele>1757.91</ele>
        <time>2014-01-25T12:13:14Z</time>
      </trkpt>
      <trkpt lat="44.99805" lon="5.54255">
        <ele>1757.43</ele>
        <time>2014-01-25T12:13:41Z</time>
      </trkpt>
      <trkpt lat="44.99808" lon="5.54259">
        <ele>1756.47</ele>
        <time>2014-01-25T12:14:13Z</time>
      </trkpt>
      <trkpt lat="44.99807" lon="5.5426">
        <ele>1753.1</ele>
        <time>2014-01-25T12:14:32Z</time>
      </trkpt>
      <trkpt lat="44.99805" lon="5.54262">
        <ele>1752.14</ele>
        <time>2014-01-25T12:14:58Z</time>
      </trkpt>
      <trkpt lat="44.99804" lon="5.54261">
        <ele>1752.62</ele>
        <time>2014-01-25T12:15:18Z</time>
      </trkpt>
      <trkpt lat="44.99805" lon="5.54262">
        <ele>1751.66</ele>
        <time>2014-01-25T12:15:49Z</time>
      </trkpt>
      <trkpt lat="44.99803" lon="5.54265">
        <ele>1752.14</ele>
        <time>2014-01-25T12:16:19Z</time>
      </trkpt>
      <trkpt lat="44.99806" lon="5.5426">
        <ele>1748.78</ele>
        <time>2014-01-25T12:16:45Z</time>
      </trkpt>
      <trkpt lat="44.99806" lon="5.54262">
        <ele>1749.26</ele>
        <time>2014-01-25T12:17:08Z</time>
      </trkpt>
      <trkpt lat="44.99802" lon="5.54263">
        <ele>1753.1</ele>
        <time>2014-01-25T12:17:31Z</time>
      </trkpt>
      <trkpt lat="44.99804" lon="5.54264">
        <ele>1755.5</ele>
        <time>2014-01-25T12:17:54Z</time>
      </trkpt>
      <trkpt lat="44.99801" lon="5.54264">
        <ele>1755.02</ele>
        <time>2014-01-25T12:18:25Z</time>
      </trkpt>
      <trkpt lat="44.99799" lon="5.54264">
        <ele>1756.95</ele>
        <time>2014-01-25T12:18:52Z</time>
      </trkpt>
      <trkpt lat="44.99799" lon="5.54266">
        <ele>1760.31</ele>
        <time>2014-01-25T12:19:21Z</time>
      </trkpt>
      <trkpt lat="44.99797" lon="5.54261">
        <ele>1760.31</ele>
        <time>2014-01-25T12:19:56Z</time>
      </trkpt>
      <trkpt lat="44.99798" lon="5.54263">
        <ele>1761.27</ele>
        <time>2014-01-25T12:20:23Z</time>
      </trkpt>
      <trkpt lat="44.99799" lon="5.54262">
        <ele>1756.47</ele>
        <time>2014-01-25T12:20:43Z</time>
      </trkpt>
      <trkpt lat="44.99805" lon="5.5426">
        <ele>1753.1</ele>
        <time>2014-01-25T12:21:07Z</time>
      </trkpt>
      <trkpt lat="44.99803" lon="5.54263">
        <ele>1751.18</ele>
        <time>2014-01-25T12:21:36Z</time>
      </trkpt>
      <trkpt lat="44.99801" lon="5.54263">
        <ele>1752.14</ele>
        <time>2014-01-25T12:22:05Z</time>
      </trkpt>
      <trkpt lat="44.99805" lon="5.54261">
        <ele>1751.18</ele>
        <time>2014-01-25T12:22:28Z</time>
      </trkpt>
      <trkpt lat="44.99804" lon="5.54265">
        <ele>1752.62</ele>
        <time>2014-01-25T12:22:59Z</time>
      </trkpt>
      <trkpt lat="44.99803" lon="5.54263">
        <ele>1751.66</ele>
        <time>2014-01-25T12:23:26Z</time>
      </trkpt>
      <trkpt lat="44.99802" lon="5.54263">
        <ele>1753.58</ele>
        <time>2014-01-25T12:23:59Z</time>
      </trkpt>
      <trkpt lat="44.998" lon="5.54265">
        <ele>1755.99</ele>
        <time>2014-01-25T12:24:34Z</time>
      </trkpt>
      <trkpt lat="44.99801" lon="5.54265">
        <ele>1757.43</ele>
        <time>2014-01-25T12:25:06Z</time>
      </trkpt>
      <trkpt lat="44.99799" lon="5.5426">
        <ele>1755.99</ele>
        <time>2014-01-25T12:25:31Z</time>
      </trkpt>
      <trkpt lat="44.99801" lon="5.54259">
        <ele>1757.91</ele>
        <time>2014-01-25T12:26:06Z</time>
      </trkpt>
      <trkpt lat="44.99801" lon="5.54262">
        <ele>1755.02</ele>
        <time>2014-01-25T12:26:40Z</time>
      </trkpt>
      <trkpt lat="44.998" lon="5.54263">
        <ele>1754.54</ele>
        <time>2014-01-25T12:27:16Z</time>
      </trkpt>
      <trkpt lat="44.99801" lon="5.54261">
        <ele>1753.58</ele>
        <time>2014-01-25T12:27:44Z</time>
      </trkpt>
      <trkpt lat="44.99805" lon="5.54258">
        <ele>1745.89</ele>
        <time>2014-01-25T12:28:08Z</time>
      </trkpt>
      <trkpt lat="44.99807" lon="5.54258">
        <ele>1747.33</ele>
        <time>2014-01-25T12:28:26Z</time>
      </trkpt>
      <trkpt lat="44.99806" lon="5.54257">
        <ele>1746.85</ele>
        <time>2014-01-25T12:28:52Z</time>
      </trkpt>
      <trkpt lat="44.99806" lon="5.54259">
        <ele>1746.85</ele>
        <time>2014-01-25T12:29:14Z</time>
      </trkpt>
      <trkpt lat="44.9981" lon="5.54263">
        <ele>1746.37</ele>
        <time>2014-01-25T12:29:34Z</time>
      </trkpt>
      <trkpt lat="44.99808" lon="5.54263">
        <ele>1744.45</ele>
        <time>2014-01-25T12:29:57Z</time>
      </trkpt>
      <trkpt lat="44.9981" lon="5.54263">
        <ele>1743.97</ele>
        <time>2014-01-25T12:30:23Z</time>
      </trkpt>
      <trkpt lat="44.99809" lon="5.54262">
        <ele>1747.33</ele>
        <time>2014-01-25T12:30:42Z</time>
      </trkpt>
      <trkpt lat="44.99811" lon="5.54263">
        <ele>1746.85</ele>
        <time>2014-01-25T12:31:01Z</time>
      </trkpt>
      <trkpt lat="44.99806" lon="5.54259">
        <ele>1746.85</ele>
        <time>2014-01-25T12:31:20Z</time>
      </trkpt>
      <trkpt lat="44.99802" lon="5.54252">
        <ele>1752.14</ele>
        <time>2014-01-25T12:31:50Z</time>
      </trkpt>
      <trkpt lat="44.99809" lon="5.5426">
        <ele>1749.26</ele>
        <time>2014-01-25T12:32:13Z</time>
      </trkpt>
      <trkpt lat="44.9981" lon="5.54263">
        <ele>1747.33</ele>
        <time>2014-01-25T12:32:34Z</time>
      </trkpt>
      <trkpt lat="44.9981" lon="5.54263">
        <ele>1743.01</ele>
        <time>2014-01-25T12:32:56Z</time>
      </trkpt>
      <trkpt lat="44.99808" lon="5.54261">
        <ele>1745.41</ele>
        <time>2014-01-25T12:33:21Z</time>
      </trkpt>
      <trkpt lat="44.99808" lon="5.54261">
        <ele>1744.93</ele>
        <time>2014-01-25T12:33:53Z</time>
      </trkpt>
      <trkpt lat="44.99807" lon="5.54261">
        <ele>1746.85</ele>
        <time>2014-01-25T12:34:16Z</time>
      </trkpt>
      <trkpt lat="44.99808" lon="5.54263">
        <ele>1742.53</ele>
        <time>2014-01-25T12:34:40Z</time>
      </trkpt>
      <trkpt lat="44.99801" lon="5.54263">
        <ele>1739.16</ele>
        <time>2014-01-25T12:35:02Z</time>
      </trkpt>
      <trkpt lat="44.99807" lon="5.54261">
        <ele>1743.01</ele>
        <time>2014-01-25T12:35:20Z</time>
      </trkpt>
      <trkpt lat="44.9981" lon="5.5426">
        <ele>1743.97</ele>
        <time>2014-01-25T12:35:43Z</time>
      </trkpt>
      <trkpt lat="44.99813" lon="5.5427">
        <ele>1749.74</ele>
        <time>2014-01-25T12:35:59Z</time>
      </trkpt>
      <trkpt lat="44.9982" lon="5.54271">
        <ele>1753.1</ele>
        <time>2014-01-25T12:36:12Z</time>
      </trkpt>
      <trkpt lat="44.9982" lon="5.5427">
        <ele>1752.62</ele>
        <time>2014-01-25T12:36:26Z</time>
      </trkpt>
      <trkpt lat="44.99824" lon="5.54274">
        <ele>1753.1</ele>
        <time>2014-01-25T12:36:39Z</time>
      </trkpt>
      <trkpt lat="44.99835" lon="5.54293">
        <ele>1755.99</ele>
        <time>2014-01-25T12:36:58Z</time>
      </trkpt>
      <trkpt lat="44.99835" lon="5.54294">
        <ele>1755.99</ele>
        <time>2014-01-25T12:37:00Z</time>
      </trkpt>
      <trkpt lat="44.99836" lon="5.54298">
        <ele>1755.02</ele>
        <time>2014-01-25T12:37:17Z</time>
      </trkpt>
      <trkpt lat="44.99839" lon="5.54311">
        <ele>1757.43</ele>
        <time>2014-01-25T12:37:33Z</time>
      </trkpt>
      <trkpt lat="44.99847" lon="5.5433">
        <ele>1759.83</ele>
        <time>2014-01-25T12:37:50Z</time>
      </trkpt>
      <trkpt lat="44.99852" lon="5.54349">
        <ele>1758.87</ele>
        <time>2014-01-25T12:38:06Z</time>
      </trkpt>
      <trkpt lat="44.99861" lon="5.54369">
        <ele>1759.35</ele>
        <time>2014-01-25T12:38:22Z</time>
      </trkpt>
      <trkpt lat="44.99868" lon="5.54375">
        <ele>1760.79</ele>
        <time>2014-01-25T12:38:34Z</time>
      </trkpt>
      <trkpt lat="44.99879" lon="5.54375">
        <ele>1766.08</ele>
        <time>2014-01-25T12:38:50Z</time>
      </trkpt>
      <trkpt lat="44.99886" lon="5.54375">
        <ele>1768.96</ele>
        <time>2014-01-25T12:39:01Z</time>
      </trkpt>
      <trkpt lat="44.99891" lon="5.54375">
        <ele>1769.92</ele>
        <time>2014-01-25T12:39:16Z</time>
      </trkpt>
      <trkpt lat="44.99895" lon="5.54371">
        <ele>1770.41</ele>
        <time>2014-01-25T12:39:25Z</time>
      </trkpt>
      <trkpt lat="44.99903" lon="5.54367">
        <ele>1772.33</ele>
        <time>2014-01-25T12:39:42Z</time>
      </trkpt>
      <trkpt lat="44.99908" lon="5.54372">
        <ele>1774.25</ele>
        <time>2014-01-25T12:39:55Z</time>
      </trkpt>
      <trkpt lat="44.9991" lon="5.54381">
        <ele>1776.17</ele>
        <time>2014-01-25T12:40:13Z</time>
      </trkpt>
      <trkpt lat="44.99915" lon="5.54368">
        <ele>1779.06</ele>
        <time>2014-01-25T12:40:31Z</time>
      </trkpt>
      <trkpt lat="44.99923" lon="5.54364">
        <ele>1780.5</ele>
        <time>2014-01-25T12:40:49Z</time>
      </trkpt>
      <trkpt lat="44.99927" lon="5.54376">
        <ele>1782.9</ele>
        <time>2014-01-25T12:41:04Z</time>
      </trkpt>
      <trkpt lat="44.9993" lon="5.54376">
        <ele>1785.31</ele>
        <time>2014-01-25T12:41:18Z</time>
      </trkpt>
      <trkpt lat="44.99937" lon="5.54366">
        <ele>1786.27</ele>
        <time>2014-01-25T12:41:35Z</time>
      </trkpt>
      <trkpt lat="44.99945" lon="5.54361">
        <ele>1788.67</ele>
        <time>2014-01-25T12:41:51Z</time>
      </trkpt>
      <trkpt lat="44.99953" lon="5.54357">
        <ele>1793</ele>
        <time>2014-01-25T12:42:08Z</time>
      </trkpt>
      <trkpt lat="44.99961" lon="5.54355">
        <ele>1794.92</ele>
        <time>2014-01-25T12:42:22Z</time>
      </trkpt>
      <trkpt lat="44.9997" lon="5.54353">
        <ele>1796.36</ele>
        <time>2014-01-25T12:42:37Z</time>
      </trkpt>
      <trkpt lat="44.99977" lon="5.54349">
        <ele>1799.73</ele>
        <time>2014-01-25T12:42:51Z</time>
      </trkpt>
      <trkpt lat="44.99981" lon="5.54349">
        <ele>1799.73</ele>
        <time>2014-01-25T12:43:05Z</time>
      </trkpt>
      <trkpt lat="44.99986" lon="5.54351">
        <ele>1802.13</ele>
        <time>2014-01-25T12:43:19Z</time>
      </trkpt>
      <trkpt lat="44.99995" lon="5.54352">
        <ele>1806.45</ele>
        <time>2014-01-25T12:43:37Z</time>
      </trkpt>
      <trkpt lat="45.00001" lon="5.54349">
        <ele>1806.94</ele>
        <time>2014-01-25T12:43:47Z</time>
      </trkpt>
      <trkpt lat="45.00013" lon="5.54348">
        <ele>1805.01</ele>
        <time>2014-01-25T12:44:00Z</time>
      </trkpt>
      <trkpt lat="45.00022" lon="5.54343">
        <ele>1804.53</ele>
        <time>2014-01-25T12:44:13Z</time>
      </trkpt>
      <trkpt lat="45.00035" lon="5.54341">
        <ele>1803.57</ele>
        <time>2014-01-25T12:44:26Z</time>
      </trkpt>
      <trkpt lat="45.00052" lon="5.54338">
        <ele>1801.17</ele>
        <time>2014-01-25T12:44:46Z</time>
      </trkpt>
      <trkpt lat="45.00065" lon="5.54337">
        <ele>1800.69</ele>
        <time>2014-01-25T12:45:02Z</time>
      </trkpt>
      <trkpt lat="45.00079" lon="5.54335">
        <ele>1801.17</ele>
        <time>2014-01-25T12:45:20Z</time>
      </trkpt>
      <trkpt lat="45.00083" lon="5.54333">
        <ele>1801.65</ele>
        <time>2014-01-25T12:45:24Z</time>
      </trkpt>
      <trkpt lat="45.00097" lon="5.5433">
        <ele>1801.17</ele>
        <time>2014-01-25T12:45:41Z</time>
      </trkpt>
      <trkpt lat="45.00112" lon="5.54325">
        <ele>1801.65</ele>
        <time>2014-01-25T12:46:01Z</time>
      </trkpt>
      <trkpt lat="45.00119" lon="5.5432">
        <ele>1804.53</ele>
        <time>2014-01-25T12:46:17Z</time>
      </trkpt>
      <trkpt lat="45.00121" lon="5.54318">
        <ele>1804.53</ele>
        <time>2014-01-25T12:46:21Z</time>
      </trkpt>
      <trkpt lat="45.00132" lon="5.54314">
        <ele>1805.97</ele>
        <time>2014-01-25T12:46:38Z</time>
      </trkpt>
      <trkpt lat="45.00142" lon="5.54309">
        <ele>1807.9</ele>
        <time>2014-01-25T12:46:53Z</time>
      </trkpt>
      <trkpt lat="45.00155" lon="5.54301">
        <ele>1808.86</ele>
        <time>2014-01-25T12:47:12Z</time>
      </trkpt>
      <trkpt lat="45.00164" lon="5.54296">
        <ele>1810.3</ele>
        <time>2014-01-25T12:47:26Z</time>
      </trkpt>
      <trkpt lat="45.00173" lon="5.54289">
        <ele>1812.22</ele>
        <time>2014-01-25T12:47:41Z</time>
      </trkpt>
      <trkpt lat="45.00181" lon="5.54284">
        <ele>1813.18</ele>
        <time>2014-01-25T12:47:56Z</time>
      </trkpt>
      <trkpt lat="45.0019" lon="5.5428">
        <ele>1815.59</ele>
        <time>2014-01-25T12:48:11Z</time>
      </trkpt>
      <trkpt lat="45.00198" lon="5.54277">
        <ele>1818.95</ele>
        <time>2014-01-25T12:48:27Z</time>
      </trkpt>
      <trkpt lat="45.00203" lon="5.54281">
        <ele>1820.87</ele>
        <time>2014-01-25T12:48:44Z</time>
      </trkpt>
      <trkpt lat="45.00204" lon="5.54288">
        <ele>1821.35</ele>
        <time>2014-01-25T12:48:58Z</time>
      </trkpt>
      <trkpt lat="45.00204" lon="5.54291">
        <ele>1822.32</ele>
        <time>2014-01-25T12:49:13Z</time>
      </trkpt>
      <trkpt lat="45.00201" lon="5.54301">
        <ele>1823.76</ele>
        <time>2014-01-25T12:49:28Z</time>
      </trkpt>
      <trkpt lat="45.00199" lon="5.54302">
        <ele>1825.2</ele>
        <time>2014-01-25T12:49:45Z</time>
      </trkpt>
      <trkpt lat="45.00202" lon="5.54293">
        <ele>1825.68</ele>
        <time>2014-01-25T12:49:59Z</time>
      </trkpt>
      <trkpt lat="45.00205" lon="5.54284">
        <ele>1826.16</ele>
        <time>2014-01-25T12:50:13Z</time>
      </trkpt>
      <trkpt lat="45.00209" lon="5.54277">
        <ele>1827.12</ele>
        <time>2014-01-25T12:50:27Z</time>
      </trkpt>
      <trkpt lat="45.00212" lon="5.54267">
        <ele>1828.56</ele>
        <time>2014-01-25T12:50:41Z</time>
      </trkpt>
      <trkpt lat="45.00213" lon="5.54262">
        <ele>1829.05</ele>
        <time>2014-01-25T12:50:56Z</time>
      </trkpt>
      <trkpt lat="45.00215" lon="5.54264">
        <ele>1829.53</ele>
        <time>2014-01-25T12:51:09Z</time>
      </trkpt>
      <trkpt lat="45.00216" lon="5.54259">
        <ele>1830.01</ele>
        <time>2014-01-25T12:51:38Z</time>
      </trkpt>
      <trkpt lat="45.00216" lon="5.54258">
        <ele>1831.45</ele>
        <time>2014-01-25T12:52:06Z</time>
      </trkpt>
      <trkpt lat="45.00218" lon="5.54257">
        <ele>1831.93</ele>
        <time>2014-01-25T12:52:39Z</time>
      </trkpt>
      <trkpt lat="45.00224" lon="5.54239">
        <ele>1831.93</ele>
        <time>2014-01-25T12:52:56Z</time>
      </trkpt>
      <trkpt lat="45.00229" lon="5.54226">
        <ele>1829.53</ele>
        <time>2014-01-25T12:53:10Z</time>
      </trkpt>
      <trkpt lat="45.00233" lon="5.54214">
        <ele>1830.97</ele>
        <time>2014-01-25T12:53:27Z</time>
      </trkpt>
      <trkpt lat="45.00238" lon="5.54204">
        <ele>1831.93</ele>
        <time>2014-01-25T12:53:45Z</time>
      </trkpt>
      <trkpt lat="45.00238" lon="5.54195">
        <ele>1835.77</ele>
        <time>2014-01-25T12:53:58Z</time>
      </trkpt>
      <trkpt lat="45.00242" lon="5.54182">
        <ele>1838.66</ele>
        <time>2014-01-25T12:54:12Z</time>
      </trkpt>
      <trkpt lat="45.00248" lon="5.54187">
        <ele>1837.22</ele>
        <time>2014-01-25T12:54:31Z</time>
      </trkpt>
      <trkpt lat="45.0025" lon="5.5419">
        <ele>1836.74</ele>
        <time>2014-01-25T12:55:02Z</time>
      </trkpt>
      <trkpt lat="45.00249" lon="5.54187">
        <ele>1836.74</ele>
        <time>2014-01-25T12:55:22Z</time>
      </trkpt>
      <trkpt lat="45.00249" lon="5.54184">
        <ele>1837.22</ele>
        <time>2014-01-25T12:55:39Z</time>
      </trkpt>
      <trkpt lat="45.00248" lon="5.54182">
        <ele>1838.18</ele>
        <time>2014-01-25T12:55:51Z</time>
      </trkpt>
      <trkpt lat="45.00247" lon="5.54182">
        <ele>1838.66</ele>
        <time>2014-01-25T12:56:09Z</time>
      </trkpt>
      <trkpt lat="45.00245" lon="5.54184">
        <ele>1841.06</ele>
        <time>2014-01-25T12:56:32Z</time>
      </trkpt>
      <trkpt lat="45.00246" lon="5.54182">
        <ele>1839.14</ele>
        <time>2014-01-25T12:57:02Z</time>
      </trkpt>
      <trkpt lat="45.00246" lon="5.5418">
        <ele>1837.7</ele>
        <time>2014-01-25T12:57:37Z</time>
      </trkpt>
      <trkpt lat="45.00247" lon="5.54181">
        <ele>1836.74</ele>
        <time>2014-01-25T12:58:05Z</time>
      </trkpt>
      <trkpt lat="45.00248" lon="5.54181">
        <ele>1836.74</ele>
        <time>2014-01-25T12:58:30Z</time>
      </trkpt>
      <trkpt lat="45.00249" lon="5.5418">
        <ele>1837.7</ele>
        <time>2014-01-25T12:58:51Z</time>
      </trkpt>
      <trkpt lat="45.00251" lon="5.54175">
        <ele>1837.7</ele>
        <time>2014-01-25T12:58:59Z</time>
      </trkpt>
      <trkpt lat="45.0026" lon="5.54143">
        <ele>1833.85</ele>
        <time>2014-01-25T12:59:09Z</time>
      </trkpt>
      <trkpt lat="45.0028" lon="5.54121">
        <ele>1828.56</ele>
        <time>2014-01-25T12:59:24Z</time>
      </trkpt>
      <trkpt lat="45.00282" lon="5.54117">
        <ele>1828.56</ele>
        <time>2014-01-25T12:59:28Z</time>
      </trkpt>
      <trkpt lat="45.00284" lon="5.54104">
        <ele>1828.56</ele>
        <time>2014-01-25T12:59:39Z</time>
      </trkpt>
      <trkpt lat="45.00288" lon="5.54082">
        <ele>1828.56</ele>
        <time>2014-01-25T12:59:55Z</time>
      </trkpt>
      <trkpt lat="45.00294" lon="5.5407">
        <ele>1829.53</ele>
        <time>2014-01-25T13:00:10Z</time>
      </trkpt>
      <trkpt lat="45.00299" lon="5.54065">
        <ele>1830.49</ele>
        <time>2014-01-25T13:00:27Z</time>
      </trkpt>
      <trkpt lat="45.00308" lon="5.54057">
        <ele>1830.01</ele>
        <time>2014-01-25T13:00:44Z</time>
      </trkpt>
      <trkpt lat="45.00315" lon="5.5405">
        <ele>1831.93</ele>
        <time>2014-01-25T13:01:03Z</time>
      </trkpt>
      <trkpt lat="45.00318" lon="5.54048">
        <ele>1833.85</ele>
        <time>2014-01-25T13:01:21Z</time>
      </trkpt>
      <trkpt lat="45.00322" lon="5.54039">
        <ele>1835.29</ele>
        <time>2014-01-25T13:01:34Z</time>
      </trkpt>
      <trkpt lat="45.00329" lon="5.54034">
        <ele>1835.77</ele>
        <time>2014-01-25T13:01:50Z</time>
      </trkpt>
      <trkpt lat="45.00339" lon="5.54032">
        <ele>1835.29</ele>
        <time>2014-01-25T13:02:09Z</time>
      </trkpt>
      <trkpt lat="45.00341" lon="5.54035">
        <ele>1835.77</ele>
        <time>2014-01-25T13:02:25Z</time>
      </trkpt>
      <trkpt lat="45.00342" lon="5.54035">
        <ele>1837.7</ele>
        <time>2014-01-25T13:02:44Z</time>
      </trkpt>
      <trkpt lat="45.00346" lon="5.54036">
        <ele>1836.74</ele>
        <time>2014-01-25T13:02:57Z</time>
      </trkpt>
      <trkpt lat="45.00347" lon="5.54037">
        <ele>1837.7</ele>
        <time>2014-01-25T13:03:17Z</time>
      </trkpt>
      <trkpt lat="45.00349" lon="5.54049">
        <ele>1839.14</ele>
        <time>2014-01-25T13:03:30Z</time>
      </trkpt>
      <trkpt lat="45.00348" lon="5.54062">
        <ele>1842.02</ele>
        <time>2014-01-25T13:03:44Z</time>
      </trkpt>
      <trkpt lat="45.00348" lon="5.54071">
        <ele>1843.47</ele>
        <time>2014-01-25T13:03:55Z</time>
      </trkpt>
      <trkpt lat="45.0034" lon="5.5408">
        <ele>1846.35</ele>
        <time>2014-01-25T13:04:08Z</time>
      </trkpt>
      <trkpt lat="45.00338" lon="5.54085">
        <ele>1847.31</ele>
        <time>2014-01-25T13:04:22Z</time>
      </trkpt>
      <trkpt lat="45.00334" lon="5.54088">
        <ele>1846.83</ele>
        <time>2014-01-25T13:04:34Z</time>
      </trkpt>
      <trkpt lat="45.00335" lon="5.54087">
        <ele>1845.39</ele>
        <time>2014-01-25T13:04:57Z</time>
      </trkpt>
      <trkpt lat="45.00338" lon="5.54087">
        <ele>1843.95</ele>
        <time>2014-01-25T13:05:17Z</time>
      </trkpt>
      <trkpt lat="45.00336" lon="5.54086">
        <ele>1842.98</ele>
        <time>2014-01-25T13:05:42Z</time>
      </trkpt>
      <trkpt lat="45.00334" lon="5.54087">
        <ele>1843.47</ele>
        <time>2014-01-25T13:06:02Z</time>
      </trkpt>
      <trkpt lat="45.00334" lon="5.54086">
        <ele>1842.02</ele>
        <time>2014-01-25T13:06:22Z</time>
      </trkpt>
      <trkpt lat="45.00333" lon="5.54087">
        <ele>1842.5</ele>
        <time>2014-01-25T13:06:47Z</time>
      </trkpt>
      <trkpt lat="45.00335" lon="5.54085">
        <ele>1841.54</ele>
        <time>2014-01-25T13:07:15Z</time>
      </trkpt>
      <trkpt lat="45.00335" lon="5.54085">
        <ele>1842.5</ele>
        <time>2014-01-25T13:07:38Z</time>
      </trkpt>
      <trkpt lat="45.00335" lon="5.54088">
        <ele>1842.02</ele>
        <time>2014-01-25T13:08:00Z</time>
      </trkpt>
      <trkpt lat="45.00337" lon="5.54086">
        <ele>1841.06</ele>
        <time>2014-01-25T13:08:23Z</time>
      </trkpt>
      <trkpt lat="45.00335" lon="5.54087">
        <ele>1841.54</ele>
        <time>2014-01-25T13:08:49Z</time>
      </trkpt>
      <trkpt lat="45.00336" lon="5.54086">
        <ele>1841.06</ele>
        <time>2014-01-25T13:09:17Z</time>
      </trkpt>
      <trkpt lat="45.00336" lon="5.54085">
        <ele>1840.58</ele>
        <time>2014-01-25T13:09:44Z</time>
      </trkpt>
      <trkpt lat="45.00335" lon="5.54086">
        <ele>1841.54</ele>
        <time>2014-01-25T13:10:05Z</time>
      </trkpt>
      <trkpt lat="45.00333" lon="5.54086">
        <ele>1842.02</ele>
        <time>2014-01-25T13:10:24Z</time>
      </trkpt>
      <trkpt lat="45.00335" lon="5.54086">
        <ele>1841.06</ele>
        <time>2014-01-25T13:10:49Z</time>
      </trkpt>
      <trkpt lat="45.00333" lon="5.54088">
        <ele>1841.54</ele>
        <time>2014-01-25T13:11:16Z</time>
      </trkpt>
      <trkpt lat="45.00333" lon="5.54087">
        <ele>1842.5</ele>
        <time>2014-01-25T13:11:34Z</time>
      </trkpt>
      <trkpt lat="45.00333" lon="5.54089">
        <ele>1842.5</ele>
        <time>2014-01-25T13:12:05Z</time>
      </trkpt>
      <trkpt lat="45.00332" lon="5.54089">
        <ele>1842.02</ele>
        <time>2014-01-25T13:12:10Z</time>
      </trkpt>
      <trkpt lat="45.0033" lon="5.54085">
        <ele>1841.54</ele>
        <time>2014-01-25T13:12:13Z</time>
      </trkpt>
      <trkpt lat="45.00328" lon="5.54072">
        <ele>1840.58</ele>
        <time>2014-01-25T13:12:19Z</time>
      </trkpt>
      <trkpt lat="45.0033" lon="5.54041">
        <ele>1838.66</ele>
        <time>2014-01-25T13:12:32Z</time>
      </trkpt>
      <trkpt lat="45.00337" lon="5.54035">
        <ele>1838.18</ele>
        <time>2014-01-25T13:12:36Z</time>
      </trkpt>
      <trkpt lat="45.00347" lon="5.54019">
        <ele>1834.33</ele>
        <time>2014-01-25T13:12:45Z</time>
      </trkpt>
      <trkpt lat="45.00356" lon="5.54003">
        <ele>1829.53</ele>
        <time>2014-01-25T13:12:51Z</time>
      </trkpt>
      <trkpt lat="45.00359" lon="5.54001">
        <ele>1827.12</ele>
        <time>2014-01-25T13:12:53Z</time>
      </trkpt>
      <trkpt lat="45.0037" lon="5.54">
        <ele>1822.32</ele>
        <time>2014-01-25T13:12:58Z</time>
      </trkpt>
      <trkpt lat="45.00404" lon="5.54033">
        <ele>1812.7</ele>
        <time>2014-01-25T13:13:10Z</time>
      </trkpt>
      <trkpt lat="45.00431" lon="5.54051">
        <ele>1808.38</ele>
        <time>2014-01-25T13:13:20Z</time>
      </trkpt>
      <trkpt lat="45.00462" lon="5.54072">
        <ele>1803.09</ele>
        <time>2014-01-25T13:13:34Z</time>
      </trkpt>
      <trkpt lat="45.00485" lon="5.541">
        <ele>1794.92</ele>
        <time>2014-01-25T13:13:47Z</time>
      </trkpt>
      <trkpt lat="45.00486" lon="5.54098">
        <ele>1793.96</ele>
        <time>2014-01-25T13:14:06Z</time>
      </trkpt>
      <trkpt lat="45.00485" lon="5.54097">
        <ele>1793.96</ele>
        <time>2014-01-25T13:14:15Z</time>
      </trkpt>
      <trkpt lat="45.00479" lon="5.54071">
        <ele>1792.52</ele>
        <time>2014-01-25T13:14:23Z</time>
      </trkpt>
      <trkpt lat="45.00454" lon="5.54011">
        <ele>1789.63</ele>
        <time>2014-01-25T13:14:37Z</time>
      </trkpt>
      <trkpt lat="45.00422" lon="5.5394">
        <ele>1782.9</ele>
        <time>2014-01-25T13:14:51Z</time>
      </trkpt>
      <trkpt lat="45.00405" lon="5.53906">
        <ele>1777.61</ele>
        <time>2014-01-25T13:15:00Z</time>
      </trkpt>
      <trkpt lat="45.00404" lon="5.53903">
        <ele>1776.17</ele>
        <time>2014-01-25T13:15:04Z</time>
      </trkpt>
      <trkpt lat="45.00399" lon="5.53889">
        <ele>1774.25</ele>
        <time>2014-01-25T13:15:09Z</time>
      </trkpt>
      <trkpt lat="45.00376" lon="5.53848">
        <ele>1767.52</ele>
        <time>2014-01-25T13:15:21Z</time>
      </trkpt>
      <trkpt lat="45.00348" lon="5.53811">
        <ele>1761.27</ele>
        <time>2014-01-25T13:15:34Z</time>
      </trkpt>
      <trkpt lat="45.00346" lon="5.53804">
        <ele>1756.47</ele>
        <time>2014-01-25T13:15:46Z</time>
      </trkpt>
      <trkpt lat="45.00357" lon="5.53791">
        <ele>1748.29</ele>
        <time>2014-01-25T13:15:52Z</time>
      </trkpt>
      <trkpt lat="45.00356" lon="5.53788">
        <ele>1743.97</ele>
        <time>2014-01-25T13:15:59Z</time>
      </trkpt>
      <trkpt lat="45.00338" lon="5.53772">
        <ele>1738.68</ele>
        <time>2014-01-25T13:16:10Z</time>
      </trkpt>
      <trkpt lat="45.00317" lon="5.53751">
        <ele>1736.28</ele>
        <time>2014-01-25T13:16:21Z</time>
      </trkpt>
      <trkpt lat="45.00333" lon="5.53736">
        <ele>1729.07</ele>
        <time>2014-01-25T13:16:30Z</time>
      </trkpt>
      <trkpt lat="45.0033" lon="5.53733">
        <ele>1728.59</ele>
        <time>2014-01-25T13:16:31Z</time>
      </trkpt>
      <trkpt lat="45.00299" lon="5.53707">
        <ele>1719.94</ele>
        <time>2014-01-25T13:16:44Z</time>
      </trkpt>
      <trkpt lat="45.00304" lon="5.53692">
        <ele>1711.76</ele>
        <time>2014-01-25T13:16:51Z</time>
      </trkpt>
      <trkpt lat="45.00303" lon="5.53694">
        <ele>1707.44</ele>
        <time>2014-01-25T13:17:06Z</time>
      </trkpt>
      <trkpt lat="45.00302" lon="5.53697">
        <ele>1713.21</ele>
        <time>2014-01-25T13:17:35Z</time>
      </trkpt>
      <trkpt lat="45.00292" lon="5.53686">
        <ele>1713.69</ele>
        <time>2014-01-25T13:18:06Z</time>
      </trkpt>
      <trkpt lat="45.00284" lon="5.53679">
        <ele>1712.73</ele>
        <time>2014-01-25T13:18:09Z</time>
      </trkpt>
      <trkpt lat="45.00285" lon="5.5366">
        <ele>1706.96</ele>
        <time>2014-01-25T13:18:17Z</time>
      </trkpt>
      <trkpt lat="45.00275" lon="5.5365">
        <ele>1704.55</ele>
        <time>2014-01-25T13:18:22Z</time>
      </trkpt>
      <trkpt lat="45.00271" lon="5.53625">
        <ele>1698.79</ele>
        <time>2014-01-25T13:18:28Z</time>
      </trkpt>
      <trkpt lat="45.00277" lon="5.53598">
        <ele>1689.65</ele>
        <time>2014-01-25T13:18:34Z</time>
      </trkpt>
      <trkpt lat="45.00273" lon="5.53583">
        <ele>1684.85</ele>
        <time>2014-01-25T13:18:37Z</time>
      </trkpt>
      <trkpt lat="45.00277" lon="5.53565">
        <ele>1678.12</ele>
        <time>2014-01-25T13:18:41Z</time>
      </trkpt>
      <trkpt lat="45.00259" lon="5.53528">
        <ele>1664.18</ele>
        <time>2014-01-25T13:18:52Z</time>
      </trkpt>
      <trkpt lat="45.00252" lon="5.53521">
        <ele>1663.22</ele>
        <time>2014-01-25T13:18:57Z</time>
      </trkpt>
      <trkpt lat="45.00257" lon="5.53513">
        <ele>1661.3</ele>
        <time>2014-01-25T13:19:04Z</time>
      </trkpt>
      <trkpt lat="45.00256" lon="5.5351">
        <ele>1660.81</ele>
        <time>2014-01-25T13:19:33Z</time>
      </trkpt>
      <trkpt lat="45.00256" lon="5.5351">
        <ele>1661.3</ele>
        <time>2014-01-25T13:20:00Z</time>
      </trkpt>
      <trkpt lat="45.00257" lon="5.53508">
        <ele>1662.74</ele>
        <time>2014-01-25T13:20:24Z</time>
      </trkpt>
      <trkpt lat="45.00262" lon="5.53507">
        <ele>1660.81</ele>
        <time>2014-01-25T13:20:46Z</time>
      </trkpt>
      <trkpt lat="45.00277" lon="5.53486">
        <ele>1652.64</ele>
        <time>2014-01-25T13:20:53Z</time>
      </trkpt>
      <trkpt lat="45.0028" lon="5.53482">
        <ele>1650.72</ele>
        <time>2014-01-25T13:20:54Z</time>
      </trkpt>
      <trkpt lat="45.00286" lon="5.53476">
        <ele>1647.36</ele>
        <time>2014-01-25T13:20:56Z</time>
      </trkpt>
      <trkpt lat="45.00297" lon="5.53485">
        <ele>1640.15</ele>
        <time>2014-01-25T13:21:03Z</time>
      </trkpt>
      <trkpt lat="45.00301" lon="5.53483">
        <ele>1637.26</ele>
        <time>2014-01-25T13:21:11Z</time>
      </trkpt>
      <trkpt lat="45.0031" lon="5.53457">
        <ele>1629.57</ele>
        <time>2014-01-25T13:21:18Z</time>
      </trkpt>
      <trkpt lat="45.00308" lon="5.53453">
        <ele>1628.13</ele>
        <time>2014-01-25T13:21:19Z</time>
      </trkpt>
      <trkpt lat="45.00304" lon="5.53443">
        <ele>1624.77</ele>
        <time>2014-01-25T13:21:22Z</time>
      </trkpt>
      <trkpt lat="45.00317" lon="5.53438">
        <ele>1617.56</ele>
        <time>2014-01-25T13:21:28Z</time>
      </trkpt>
      <trkpt lat="45.00316" lon="5.53426">
        <ele>1614.67</ele>
        <time>2014-01-25T13:21:31Z</time>
      </trkpt>
      <trkpt lat="45.00332" lon="5.53421">
        <ele>1604.58</ele>
        <time>2014-01-25T13:21:38Z</time>
      </trkpt>
      <trkpt lat="45.00337" lon="5.53428">
        <ele>1601.69</ele>
        <time>2014-01-25T13:21:40Z</time>
      </trkpt>
      <trkpt lat="45.00346" lon="5.53439">
        <ele>1595.93</ele>
        <time>2014-01-25T13:21:50Z</time>
      </trkpt>
      <trkpt lat="45.00348" lon="5.53442">
        <ele>1596.89</ele>
        <time>2014-01-25T13:22:14Z</time>
      </trkpt>
      <trkpt lat="45.00347" lon="5.53436">
        <ele>1600.25</ele>
        <time>2014-01-25T13:22:34Z</time>
      </trkpt>
      <trkpt lat="45.00348" lon="5.53441">
        <ele>1604.1</ele>
        <time>2014-01-25T13:23:01Z</time>
      </trkpt>
      <trkpt lat="45.0035" lon="5.53435">
        <ele>1607.94</ele>
        <time>2014-01-25T13:23:31Z</time>
      </trkpt>
      <trkpt lat="45.00358" lon="5.5344">
        <ele>1605.06</ele>
        <time>2014-01-25T13:23:37Z</time>
      </trkpt>
      <trkpt lat="45.00368" lon="5.53425">
        <ele>1598.33</ele>
        <time>2014-01-25T13:23:43Z</time>
      </trkpt>
      <trkpt lat="45.00372" lon="5.5342">
        <ele>1595.93</ele>
        <time>2014-01-25T13:23:45Z</time>
      </trkpt>
      <trkpt lat="45.00382" lon="5.53408">
        <ele>1593.04</ele>
        <time>2014-01-25T13:23:50Z</time>
      </trkpt>
      <trkpt lat="45.00388" lon="5.53399">
        <ele>1591.6</ele>
        <time>2014-01-25T13:23:55Z</time>
      </trkpt>
      <trkpt lat="45.00388" lon="5.53395">
        <ele>1591.6</ele>
        <time>2014-01-25T13:23:56Z</time>
      </trkpt>
      <trkpt lat="45.00402" lon="5.53392">
        <ele>1590.16</ele>
        <time>2014-01-25T13:24:01Z</time>
      </trkpt>
      <trkpt lat="45.00433" lon="5.53395">
        <ele>1588.72</ele>
        <time>2014-01-25T13:24:12Z</time>
      </trkpt>
      <trkpt lat="45.00436" lon="5.53404">
        <ele>1585.35</ele>
        <time>2014-01-25T13:24:23Z</time>
      </trkpt>
      <trkpt lat="45.00441" lon="5.5341">
        <ele>1582.47</ele>
        <time>2014-01-25T13:24:32Z</time>
      </trkpt>
      <trkpt lat="45.00458" lon="5.53411">
        <ele>1575.26</ele>
        <time>2014-01-25T13:24:41Z</time>
      </trkpt>
      <trkpt lat="45.00463" lon="5.53412">
        <ele>1573.33</ele>
        <time>2014-01-25T13:24:43Z</time>
      </trkpt>
      <trkpt lat="45.00481" lon="5.53406">
        <ele>1567.57</ele>
        <time>2014-01-25T13:24:50Z</time>
      </trkpt>
      <trkpt lat="45.00488" lon="5.5341">
        <ele>1563.24</ele>
        <time>2014-01-25T13:25:00Z</time>
      </trkpt>
      <trkpt lat="45.00496" lon="5.53415">
        <ele>1559.4</ele>
        <time>2014-01-25T13:25:10Z</time>
      </trkpt>
      <trkpt lat="45.00518" lon="5.53419">
        <ele>1554.59</ele>
        <time>2014-01-25T13:25:19Z</time>
      </trkpt>
      <trkpt lat="45.0052" lon="5.53418">
        <ele>1553.63</ele>
        <time>2014-01-25T13:25:20Z</time>
      </trkpt>
      <trkpt lat="45.00522" lon="5.53412">
        <ele>1552.19</ele>
        <time>2014-01-25T13:25:22Z</time>
      </trkpt>
      <trkpt lat="45.00539" lon="5.53414">
        <ele>1547.38</ele>
        <time>2014-01-25T13:25:27Z</time>
      </trkpt>
      <trkpt lat="45.0057" lon="5.53418">
        <ele>1539.21</ele>
        <time>2014-01-25T13:25:37Z</time>
      </trkpt>
      <trkpt lat="45.00593" lon="5.53426">
        <ele>1534.4</ele>
        <time>2014-01-25T13:25:48Z</time>
      </trkpt>
      <trkpt lat="45.00591" lon="5.53424">
        <ele>1532</ele>
        <time>2014-01-25T13:26:09Z</time>
      </trkpt>
      <trkpt lat="45.00593" lon="5.53422">
        <ele>1532</ele>
        <time>2014-01-25T13:26:29Z</time>
      </trkpt>
      <trkpt lat="45.006" lon="5.53414">
        <ele>1527.67</ele>
        <time>2014-01-25T13:26:36Z</time>
      </trkpt>
      <trkpt lat="45.00612" lon="5.53403">
        <ele>1521.42</ele>
        <time>2014-01-25T13:26:41Z</time>
      </trkpt>
      <trkpt lat="45.00618" lon="5.53402">
        <ele>1518.54</ele>
        <time>2014-01-25T13:26:43Z</time>
      </trkpt>
      <trkpt lat="45.00635" lon="5.53404">
        <ele>1511.33</ele>
        <time>2014-01-25T13:26:49Z</time>
      </trkpt>
      <trkpt lat="45.00646" lon="5.53402">
        <ele>1508.93</ele>
        <time>2014-01-25T13:26:53Z</time>
      </trkpt>
      <trkpt lat="45.00675" lon="5.53407">
        <ele>1506.52</ele>
        <time>2014-01-25T13:26:59Z</time>
      </trkpt>
      <trkpt lat="45.00676" lon="5.53408">
        <ele>1506.04</ele>
        <time>2014-01-25T13:27:00Z</time>
      </trkpt>
      <trkpt lat="45.00675" lon="5.53405">
        <ele>1505.08</ele>
        <time>2014-01-25T13:27:06Z</time>
      </trkpt>
      <trkpt lat="45.00684" lon="5.53405">
        <ele>1501.24</ele>
        <time>2014-01-25T13:27:11Z</time>
      </trkpt>
      <trkpt lat="45.00696" lon="5.53398">
        <ele>1498.83</ele>
        <time>2014-01-25T13:27:16Z</time>
      </trkpt>
      <trkpt lat="45.00712" lon="5.53405">
        <ele>1494.03</ele>
        <time>2014-01-25T13:27:21Z</time>
      </trkpt>
      <trkpt lat="45.0072" lon="5.53403">
        <ele>1491.62</ele>
        <time>2014-01-25T13:27:23Z</time>
      </trkpt>
      <trkpt lat="45.00753" lon="5.53423">
        <ele>1482.01</ele>
        <time>2014-01-25T13:27:32Z</time>
      </trkpt>
      <trkpt lat="45.00762" lon="5.53433">
        <ele>1479.13</ele>
        <time>2014-01-25T13:27:41Z</time>
      </trkpt>
      <trkpt lat="45.00763" lon="5.53436">
        <ele>1479.13</ele>
        <time>2014-01-25T13:27:58Z</time>
      </trkpt>
      <trkpt lat="45.0077" lon="5.53443">
        <ele>1477.68</ele>
        <time>2014-01-25T13:28:04Z</time>
      </trkpt>
      <trkpt lat="45.0078" lon="5.53426">
        <ele>1475.28</ele>
        <time>2014-01-25T13:28:12Z</time>
      </trkpt>
      <trkpt lat="45.00783" lon="5.53431">
        <ele>1474.32</ele>
        <time>2014-01-25T13:28:14Z</time>
      </trkpt>
      <trkpt lat="45.00788" lon="5.53444">
        <ele>1471.92</ele>
        <time>2014-01-25T13:28:17Z</time>
      </trkpt>
      <trkpt lat="45.00803" lon="5.53439">
        <ele>1468.07</ele>
        <time>2014-01-25T13:28:23Z</time>
      </trkpt>
      <trkpt lat="45.00825" lon="5.5344">
        <ele>1463.26</ele>
        <time>2014-01-25T13:28:30Z</time>
      </trkpt>
      <trkpt lat="45.00856" lon="5.53438">
        <ele>1457.02</ele>
        <time>2014-01-25T13:28:38Z</time>
      </trkpt>
      <trkpt lat="45.00887" lon="5.53439">
        <ele>1448.84</ele>
        <time>2014-01-25T13:28:45Z</time>
      </trkpt>
      <trkpt lat="45.0091" lon="5.53436">
        <ele>1444.04</ele>
        <time>2014-01-25T13:28:49Z</time>
      </trkpt>
      <trkpt lat="45.00928" lon="5.53441">
        <ele>1440.67</ele>
        <time>2014-01-25T13:28:57Z</time>
      </trkpt>
      <trkpt lat="45.00928" lon="5.53441">
        <ele>1441.15</ele>
        <time>2014-01-25T13:29:22Z</time>
      </trkpt>
      <trkpt lat="45.00928" lon="5.5344">
        <ele>1441.63</ele>
        <time>2014-01-25T13:29:24Z</time>
      </trkpt>
      <trkpt lat="45.00931" lon="5.53438">
        <ele>1441.63</ele>
        <time>2014-01-25T13:29:26Z</time>
      </trkpt>
      <trkpt lat="45.00933" lon="5.53409">
        <ele>1438.27</ele>
        <time>2014-01-25T13:29:31Z</time>
      </trkpt>
      <trkpt lat="45.0095" lon="5.53386">
        <ele>1432.5</ele>
        <time>2014-01-25T13:29:36Z</time>
      </trkpt>
      <trkpt lat="45.00959" lon="5.53378">
        <ele>1430.1</ele>
        <time>2014-01-25T13:29:38Z</time>
      </trkpt>
      <trkpt lat="45.00987" lon="5.53359">
        <ele>1423.37</ele>
        <time>2014-01-25T13:29:44Z</time>
      </trkpt>
      <trkpt lat="45.00995" lon="5.53356">
        <ele>1421.45</ele>
        <time>2014-01-25T13:29:46Z</time>
      </trkpt>
      <trkpt lat="45.01005" lon="5.53343">
        <ele>1416.64</ele>
        <time>2014-01-25T13:29:52Z</time>
      </trkpt>
      <trkpt lat="45.01015" lon="5.53342">
        <ele>1414.72</ele>
        <time>2014-01-25T13:29:55Z</time>
      </trkpt>
      <trkpt lat="45.01039" lon="5.53325">
        <ele>1409.91</ele>
        <time>2014-01-25T13:30:01Z</time>
      </trkpt>
      <trkpt lat="45.0107" lon="5.53297">
        <ele>1403.18</ele>
        <time>2014-01-25T13:30:08Z</time>
      </trkpt>
      <trkpt lat="45.01079" lon="5.53289">
        <ele>1401.26</ele>
        <time>2014-01-25T13:30:10Z</time>
      </trkpt>
      <trkpt lat="45.01102" lon="5.53268">
        <ele>1396.45</ele>
        <time>2014-01-25T13:30:15Z</time>
      </trkpt>
      <trkpt lat="45.01135" lon="5.53248">
        <ele>1388.76</ele>
        <time>2014-01-25T13:30:21Z</time>
      </trkpt>
      <trkpt lat="45.01161" lon="5.53241">
        <ele>1380.59</ele>
        <time>2014-01-25T13:30:25Z</time>
      </trkpt>
      <trkpt lat="45.01186" lon="5.53237">
        <ele>1372.9</ele>
        <time>2014-01-25T13:30:29Z</time>
      </trkpt>
      <trkpt lat="45.0121" lon="5.53233">
        <ele>1365.69</ele>
        <time>2014-01-25T13:30:33Z</time>
      </trkpt>
      <trkpt lat="45.01234" lon="5.5322">
        <ele>1359.44</ele>
        <time>2014-01-25T13:30:37Z</time>
      </trkpt>
      <trkpt lat="45.01247" lon="5.53211">
        <ele>1355.6</ele>
        <time>2014-01-25T13:30:39Z</time>
      </trkpt>
      <trkpt lat="45.01295" lon="5.53189">
        <ele>1343.1</ele>
        <time>2014-01-25T13:30:46Z</time>
      </trkpt>
      <trkpt lat="45.01346" lon="5.53185">
        <ele>1332.04</ele>
        <time>2014-01-25T13:30:53Z</time>
      </trkpt>
      <trkpt lat="45.01367" lon="5.5318">
        <ele>1327.72</ele>
        <time>2014-01-25T13:30:56Z</time>
      </trkpt>
      <trkpt lat="45.0144" lon="5.5316">
        <ele>1315.7</ele>
        <time>2014-01-25T13:31:05Z</time>
      </trkpt>
      <trkpt lat="45.0148" lon="5.53144">
        <ele>1308.49</ele>
        <time>2014-01-25T13:31:11Z</time>
      </trkpt>
      <trkpt lat="45.01489" lon="5.5314">
        <ele>1306.09</ele>
        <time>2014-01-25T13:31:17Z</time>
      </trkpt>
      <trkpt lat="45.01491" lon="5.53137">
        <ele>1305.61</ele>
        <time>2014-01-25T13:31:22Z</time>
      </trkpt>
      <trkpt lat="45.01502" lon="5.53148">
        <ele>1302.24</ele>
        <time>2014-01-25T13:31:28Z</time>
      </trkpt>
      <trkpt lat="45.01523" lon="5.53143">
        <ele>1298.88</ele>
        <time>2014-01-25T13:31:34Z</time>
      </trkpt>
      <trkpt lat="45.01555" lon="5.53143">
        <ele>1289.75</ele>
        <time>2014-01-25T13:31:41Z</time>
      </trkpt>
      <trkpt lat="45.0156" lon="5.5314">
        <ele>1288.3</ele>
        <time>2014-01-25T13:31:42Z</time>
      </trkpt>
      <trkpt lat="45.01594" lon="5.53124">
        <ele>1277.73</ele>
        <time>2014-01-25T13:31:49Z</time>
      </trkpt>
      <trkpt lat="45.01609" lon="5.53123">
        <ele>1273.4</ele>
        <time>2014-01-25T13:31:52Z</time>
      </trkpt>
      <trkpt lat="45.0164" lon="5.53104">
        <ele>1264.27</ele>
        <time>2014-01-25T13:31:59Z</time>
      </trkpt>
      <trkpt lat="45.01672" lon="5.53084">
        <ele>1255.14</ele>
        <time>2014-01-25T13:32:06Z</time>
      </trkpt>
      <trkpt lat="45.01681" lon="5.53079">
        <ele>1252.74</ele>
        <time>2014-01-25T13:32:08Z</time>
      </trkpt>
      <trkpt lat="45.01713" lon="5.53054">
        <ele>1244.08</ele>
        <time>2014-01-25T13:32:15Z</time>
      </trkpt>
      <trkpt lat="45.01737" lon="5.53017">
        <ele>1239.76</ele>
        <time>2014-01-25T13:32:20Z</time>
      </trkpt>
      <trkpt lat="45.01772" lon="5.52991">
        <ele>1233.51</ele>
        <time>2014-01-25T13:32:26Z</time>
      </trkpt>
      <trkpt lat="45.01787" lon="5.52983">
        <ele>1231.11</ele>
        <time>2014-01-25T13:32:29Z</time>
      </trkpt>
      <trkpt lat="45.01806" lon="5.52962">
        <ele>1228.22</ele>
        <time>2014-01-25T13:32:40Z</time>
      </trkpt>
      <trkpt lat="45.01804" lon="5.52961">
        <ele>1226.78</ele>
        <time>2014-01-25T13:32:57Z</time>
      </trkpt>
      <trkpt lat="45.01808" lon="5.52968">
        <ele>1229.66</ele>
        <time>2014-01-25T13:33:24Z</time>
      </trkpt>
      <trkpt lat="45.01811" lon="5.52966">
        <ele>1234.47</ele>
        <time>2014-01-25T13:33:44Z</time>
      </trkpt>
      <trkpt lat="45.01812" lon="5.52966">
        <ele>1236.39</ele>
        <time>2014-01-25T13:34:03Z</time>
      </trkpt>
      <trkpt lat="45.01817" lon="5.52967">
        <ele>1236.39</ele>
        <time>2014-01-25T13:34:32Z</time>
      </trkpt>
      <trkpt lat="45.01813" lon="5.52969">
        <ele>1236.87</ele>
        <time>2014-01-25T13:35:03Z</time>
      </trkpt>
      <trkpt lat="45.01813" lon="5.52963">
        <ele>1237.83</ele>
        <time>2014-01-25T13:35:23Z</time>
      </trkpt>
      <trkpt lat="45.01812" lon="5.52951">
        <ele>1238.32</ele>
        <time>2014-01-25T13:35:36Z</time>
      </trkpt>
      <trkpt lat="45.0182" lon="5.52941">
        <ele>1238.32</ele>
        <time>2014-01-25T13:35:50Z</time>
      </trkpt>
      <trkpt lat="45.0183" lon="5.52932">
        <ele>1237.35</ele>
        <time>2014-01-25T13:36:06Z</time>
      </trkpt>
      <trkpt lat="45.01844" lon="5.52923">
        <ele>1238.32</ele>
        <time>2014-01-25T13:36:26Z</time>
      </trkpt>
      <trkpt lat="45.01859" lon="5.52919">
        <ele>1241.68</ele>
        <time>2014-01-25T13:36:44Z</time>
      </trkpt>
      <trkpt lat="45.01867" lon="5.52925">
        <ele>1242.16</ele>
        <time>2014-01-25T13:36:59Z</time>
      </trkpt>
      <trkpt lat="45.01875" lon="5.5293">
        <ele>1243.6</ele>
        <time>2014-01-25T13:37:16Z</time>
      </trkpt>
      <trkpt lat="45.01888" lon="5.52932">
        <ele>1243.6</ele>
        <time>2014-01-25T13:37:31Z</time>
      </trkpt>
      <trkpt lat="45.019" lon="5.52938">
        <ele>1242.16</ele>
        <time>2014-01-25T13:37:47Z</time>
      </trkpt>
      <trkpt lat="45.01917" lon="5.52937">
        <ele>1239.28</ele>
        <time>2014-01-25T13:38:03Z</time>
      </trkpt>
      <trkpt lat="45.01923" lon="5.52938">
        <ele>1239.28</ele>
        <time>2014-01-25T13:38:10Z</time>
      </trkpt>
      <trkpt lat="45.01937" lon="5.5294">
        <ele>1239.76</ele>
        <time>2014-01-25T13:38:25Z</time>
      </trkpt>
      <trkpt lat="45.01956" lon="5.5294">
        <ele>1241.68</ele>
        <time>2014-01-25T13:38:44Z</time>
      </trkpt>
      <trkpt lat="45.01965" lon="5.52942">
        <ele>1242.16</ele>
        <time>2014-01-25T13:38:55Z</time>
      </trkpt>
      <trkpt lat="45.01983" lon="5.52936">
        <ele>1243.6</ele>
        <time>2014-01-25T13:39:13Z</time>
      </trkpt>
      <trkpt lat="45.02" lon="5.52935">
        <ele>1244.08</ele>
        <time>2014-01-25T13:39:30Z</time>
      </trkpt>
      <trkpt lat="45.02015" lon="5.52928">
        <ele>1244.08</ele>
        <time>2014-01-25T13:39:46Z</time>
      </trkpt>
      <trkpt lat="45.02031" lon="5.52913">
        <ele>1244.08</ele>
        <time>2014-01-25T13:40:05Z</time>
      </trkpt>
      <trkpt lat="45.02043" lon="5.52898">
        <ele>1241.2</ele>
        <time>2014-01-25T13:40:22Z</time>
      </trkpt>
      <trkpt lat="45.0204" lon="5.52886">
        <ele>1240.24</ele>
        <time>2014-01-25T13:40:33Z</time>
      </trkpt>
      <trkpt lat="45.0204" lon="5.52862">
        <ele>1238.8</ele>
        <time>2014-01-25T13:40:52Z</time>
      </trkpt>
      <trkpt lat="45.02038" lon="5.52838">
        <ele>1238.32</ele>
        <time>2014-01-25T13:41:09Z</time>
      </trkpt>
      <trkpt lat="45.02039" lon="5.52821">
        <ele>1237.83</ele>
        <time>2014-01-25T13:41:22Z</time>
      </trkpt>
      <trkpt lat="45.02044" lon="5.52795">
        <ele>1236.39</ele>
        <time>2014-01-25T13:41:39Z</time>
      </trkpt>
      <trkpt lat="45.02049" lon="5.52775">
        <ele>1234.95</ele>
        <time>2014-01-25T13:41:52Z</time>
      </trkpt>
      <trkpt lat="45.02057" lon="5.52761">
        <ele>1233.99</ele>
        <time>2014-01-25T13:42:04Z</time>
      </trkpt>
      <trkpt lat="45.02076" lon="5.52746">
        <ele>1230.62</ele>
        <time>2014-01-25T13:42:25Z</time>
      </trkpt>
      <trkpt lat="45.02079" lon="5.52746">
        <ele>1233.03</ele>
        <time>2014-01-25T13:42:40Z</time>
      </trkpt>
      <trkpt lat="45.02081" lon="5.52745">
        <ele>1232.07</ele>
        <time>2014-01-25T13:43:04Z</time>
      </trkpt>
      <trkpt lat="45.02083" lon="5.52752">
        <ele>1234.95</ele>
        <time>2014-01-25T13:43:21Z</time>
      </trkpt>
      <trkpt lat="45.02082" lon="5.52755">
        <ele>1236.87</ele>
        <time>2014-01-25T13:43:40Z</time>
      </trkpt>
      <trkpt lat="45.02086" lon="5.52761">
        <ele>1239.76</ele>
        <time>2014-01-25T13:44:06Z</time>
      </trkpt>
      <trkpt lat="45.0208" lon="5.52762">
        <ele>1242.16</ele>
        <time>2014-01-25T13:44:21Z</time>
      </trkpt>
      <trkpt lat="45.02077" lon="5.52755">
        <ele>1238.8</ele>
        <time>2014-01-25T13:44:32Z</time>
      </trkpt>
      <trkpt lat="45.02081" lon="5.52755">
        <ele>1237.35</ele>
        <time>2014-01-25T13:44:52Z</time>
      </trkpt>
    </trkseg>
  </trk>
</gpx>